<?xml version="1.0" encoding="UTF-8" standalone="no" ?>
<gpx xmlns="http://www.topografix.com/GPX/1/1" creator="MapSource 6.16.1" version="1.1" xmlns:xsi="http://www.w3.org/2001/XMLSchema-instance" xsi:schemaLocation="http://www.topografix.com/GPX/1/1 http://www.topografix.com/GPX/1/1/gpx.xsd">

  <metadata>
    <link href="http://www.garmin.com">
      <text>Garmin International</text>
    </link>
    <time>2010-06-12T06:24:47Z</time>
    <bounds maxlat="45.418698024004698" maxlon="8.850169004872441" minlat="45.349982008337975" minlon="8.805850027129054"/>
  </metadata>

  <wpt lat="45.354733373969793" lon="8.815416628494859">
    <ele>203</ele>
    <time>2010-06-12T06:24:13Z</time>
    <name>PARTENZA/ARRIVO</name>
    <cmt>Seminativi In Aree Non Irrigue</cmt>
    <desc>Seminativi In Aree Non Irrigue</desc>
    <sym>Bike Trail</sym>
    <extensions>
      <gpxx:WaypointExtension xmlns:gpxx="http://www.garmin.com/xmlschemas/GpxExtensions/v3">
        <gpxx:DisplayMode>SymbolAndName</gpxx:DisplayMode>
      </gpxx:WaypointExtension>
    </extensions>
  </wpt>

  <trk>
    <name>2010-06-10 - Ca</name>
    <extensions>
      <gpxx:TrackExtension xmlns:gpxx="http://www.garmin.com/xmlschemas/GpxExtensions/v3">
        <gpxx:DisplayColor>Red</gpxx:DisplayColor>
      </gpxx:TrackExtension>
    </extensions>
    <trkseg>
      <trkpt lat="45.354728009551764" lon="8.815416963770986">
        <ele>113.843</ele>
        <time>2010-06-10T19:23:37Z</time>
      </trkpt>
      <trkpt lat="45.354729015380144" lon="8.815416963770986">
        <ele>113.843</ele>
        <time>2010-06-10T19:23:38Z</time>
      </trkpt>
      <trkpt lat="45.354752987623215" lon="8.815477984026074">
        <ele>114.19799999999999</ele>
        <time>2010-06-10T19:24:40Z</time>
      </trkpt>
      <trkpt lat="45.354799004271626" lon="8.815470021218061">
        <ele>114.01000000000001</ele>
        <time>2010-06-10T19:24:42Z</time>
      </trkpt>
      <trkpt lat="45.354921966791153" lon="8.815470021218061">
        <ele>114.012</ele>
        <time>2010-06-10T19:24:48Z</time>
      </trkpt>
      <trkpt lat="45.355025986209512" lon="8.815631959587336">
        <ele>114.45999999999999</ele>
        <time>2010-06-10T19:24:54Z</time>
      </trkpt>
      <trkpt lat="45.355060016736388" lon="8.81568199954927">
        <ele>114.34</ele>
        <time>2010-06-10T19:24:56Z</time>
      </trkpt>
      <trkpt lat="45.355164958164096" lon="8.815673030912876">
        <ele>114.108</ele>
        <time>2010-06-10T19:25:00Z</time>
      </trkpt>
      <trkpt lat="45.355508029460907" lon="8.815397014841437">
        <ele>114.133</ele>
        <time>2010-06-10T19:25:11Z</time>
      </trkpt>
      <trkpt lat="45.355810029432178" lon="8.815126027911902">
        <ele>114.136</ele>
        <time>2010-06-10T19:25:20Z</time>
      </trkpt>
      <trkpt lat="45.35607498139143" lon="8.814910026267171">
        <ele>113.976</ele>
        <time>2010-06-10T19:25:28Z</time>
      </trkpt>
      <trkpt lat="45.356189981102943" lon="8.814950007945299">
        <ele>114.56100000000001</ele>
        <time>2010-06-10T19:25:32Z</time>
      </trkpt>
      <trkpt lat="45.356212025508285" lon="8.81512301042676">
        <ele>114.596</ele>
        <time>2010-06-10T19:25:36Z</time>
      </trkpt>
      <trkpt lat="45.356124015524983" lon="8.815562976524234">
        <ele>114.452</ele>
        <time>2010-06-10T19:25:44Z</time>
      </trkpt>
      <trkpt lat="45.355992000550032" lon="8.81617502309382">
        <ele>114.47799999999999</ele>
        <time>2010-06-10T19:25:54Z</time>
      </trkpt>
      <trkpt lat="45.355824027210474" lon="8.81697298027575">
        <ele>114.702</ele>
        <time>2010-06-10T19:26:05Z</time>
      </trkpt>
      <trkpt lat="45.355723025277257" lon="8.817501962184906">
        <ele>114.85599999999999</ele>
        <time>2010-06-10T19:26:12Z</time>
      </trkpt>
      <trkpt lat="45.355650018900633" lon="8.817970007658005">
        <ele>114.935</ele>
        <time>2010-06-10T19:26:18Z</time>
      </trkpt>
      <trkpt lat="45.355609031394124" lon="8.818229008466005">
        <ele>115.297</ele>
        <time>2010-06-10T19:26:22Z</time>
      </trkpt>
      <trkpt lat="45.355697041377425" lon="8.818291034549475">
        <ele>115.056</ele>
        <time>2010-06-10T19:26:26Z</time>
      </trkpt>
      <trkpt lat="45.355829978361726" lon="8.818263038992882">
        <ele>113.83199999999999</ele>
        <time>2010-06-10T19:26:29Z</time>
      </trkpt>
      <trkpt lat="45.35592402331531" lon="8.818418020382524">
        <ele>113.179</ele>
        <time>2010-06-10T19:26:32Z</time>
      </trkpt>
      <trkpt lat="45.356101971119642" lon="8.819038029760122">
        <ele>112.95399999999999</ele>
        <time>2010-06-10T19:26:41Z</time>
      </trkpt>
      <trkpt lat="45.356301041319966" lon="8.81969902664423">
        <ele>112.50700000000001</ele>
        <time>2010-06-10T19:26:51Z</time>
      </trkpt>
      <trkpt lat="45.356516959145665" lon="8.820432024076581">
        <ele>111.539</ele>
        <time>2010-06-10T19:27:01Z</time>
      </trkpt>
      <trkpt lat="45.356759028509259" lon="8.821254037320614">
        <ele>111.29300000000001</ele>
        <time>2010-06-10T19:27:12Z</time>
      </trkpt>
      <trkpt lat="45.356828011572361" lon="8.82152502425015">
        <ele>111.319</ele>
        <time>2010-06-10T19:27:16Z</time>
      </trkpt>
      <trkpt lat="45.356939993798733" lon="8.821629965677857">
        <ele>111.724</ele>
        <time>2010-06-10T19:27:20Z</time>
      </trkpt>
      <trkpt lat="45.356977041810751" lon="8.821606999263167">
        <ele>111.627</ele>
        <time>2010-06-10T19:27:21Z</time>
      </trkpt>
      <trkpt lat="45.357350036501884" lon="8.821379011496902">
        <ele>111.34699999999999</ele>
        <time>2010-06-10T19:27:29Z</time>
      </trkpt>
      <trkpt lat="45.357767036184669" lon="8.821147000417113">
        <ele>111.375</ele>
        <time>2010-06-10T19:27:37Z</time>
      </trkpt>
      <trkpt lat="45.358127038925886" lon="8.820938961580396">
        <ele>111.339</ele>
        <time>2010-06-10T19:27:44Z</time>
      </trkpt>
      <trkpt lat="45.358429038897157" lon="8.820777023211122">
        <ele>111.074</ele>
        <time>2010-06-10T19:27:50Z</time>
      </trkpt>
      <trkpt lat="45.358620984479785" lon="8.820824967697263">
        <ele>110.791</ele>
        <time>2010-06-10T19:27:54Z</time>
      </trkpt>
      <trkpt lat="45.358659960329533" lon="8.820878025144339">
        <ele>110.685</ele>
        <time>2010-06-10T19:27:55Z</time>
      </trkpt>
      <trkpt lat="45.359094981104136" lon="8.821518989279866">
        <ele>110.078</ele>
        <time>2010-06-10T19:28:06Z</time>
      </trkpt>
      <trkpt lat="45.359440986067057" lon="8.822030033916235">
        <ele>110.172</ele>
        <time>2010-06-10T19:28:15Z</time>
      </trkpt>
      <trkpt lat="45.359629997983575" lon="8.822301020845771">
        <ele>110.26000000000001</ele>
        <time>2010-06-10T19:28:20Z</time>
      </trkpt>
      <trkpt lat="45.359818004071712" lon="8.822388025000691">
        <ele>110.374</ele>
        <time>2010-06-10T19:28:24Z</time>
      </trkpt>
      <trkpt lat="45.359869971871376" lon="8.82236497476697">
        <ele>110.572</ele>
        <time>2010-06-10T19:28:25Z</time>
      </trkpt>
      <trkpt lat="45.360429966822267" lon="8.822035985067487">
        <ele>110.59999999999999</ele>
        <time>2010-06-10T19:28:36Z</time>
      </trkpt>
      <trkpt lat="45.360839003697038" lon="8.821797017008066">
        <ele>110.645</ele>
        <time>2010-06-10T19:28:44Z</time>
      </trkpt>
      <trkpt lat="45.361208980903029" lon="8.821577997878194">
        <ele>110.895</ele>
        <time>2010-06-10T19:28:51Z</time>
      </trkpt>
      <trkpt lat="45.361638972535729" lon="8.821329977363348">
        <ele>110.846</ele>
        <time>2010-06-10T19:28:59Z</time>
      </trkpt>
      <trkpt lat="45.361967040225863" lon="8.821151023730636">
        <ele>110.59999999999999</ele>
        <time>2010-06-10T19:29:05Z</time>
      </trkpt>
      <trkpt lat="45.362167032435536" lon="8.821199974045157">
        <ele>110.477</ele>
        <time>2010-06-10T19:29:09Z</time>
      </trkpt>
      <trkpt lat="45.3622190002352" lon="8.821339029818773">
        <ele>110.542</ele>
        <time>2010-06-10T19:29:11Z</time>
      </trkpt>
      <trkpt lat="45.362320002168417" lon="8.821994997560978">
        <ele>110.34999999999999</ele>
        <time>2010-06-10T19:29:19Z</time>
      </trkpt>
      <trkpt lat="45.362437013536692" lon="8.822562033310533">
        <ele>110.56399999999999</ele>
        <time>2010-06-10T19:29:26Z</time>
      </trkpt>
      <trkpt lat="45.36256299354136" lon="8.823097972199321">
        <ele>111.233</ele>
        <time>2010-06-10T19:29:33Z</time>
      </trkpt>
      <trkpt lat="45.362791987136006" lon="8.823937000706792">
        <ele>111.43000000000001</ele>
        <time>2010-06-10T19:29:44Z</time>
      </trkpt>
      <trkpt lat="45.36299399100244" lon="8.824657006189227">
        <ele>111.253</ele>
        <time>2010-06-10T19:29:53Z</time>
      </trkpt>
      <trkpt lat="45.363133968785405" lon="8.825155980885029">
        <ele>111.465</ele>
        <time>2010-06-10T19:30:00Z</time>
      </trkpt>
      <trkpt lat="45.363288028165698" lon="8.825706001371145">
        <ele>111.369</ele>
        <time>2010-06-10T19:30:09Z</time>
      </trkpt>
      <trkpt lat="45.363457007333636" lon="8.826302960515022">
        <ele>111.11799999999999</ele>
        <time>2010-06-10T19:30:18Z</time>
      </trkpt>
      <trkpt lat="45.363694969564676" lon="8.827061019837856">
        <ele>111.05800000000001</ele>
        <time>2010-06-10T19:30:29Z</time>
      </trkpt>
      <trkpt lat="45.363925974816084" lon="8.827863000333309">
        <ele>111.172</ele>
        <time>2010-06-10T19:30:40Z</time>
      </trkpt>
      <trkpt lat="45.364183969795704" lon="8.828764976933599">
        <ele>110.989</ele>
        <time>2010-06-10T19:30:52Z</time>
      </trkpt>
      <trkpt lat="45.364373987540603" lon="8.829463021829724">
        <ele>110.73099999999999</ele>
        <time>2010-06-10T19:31:01Z</time>
      </trkpt>
      <trkpt lat="45.364594012498856" lon="8.8302499987185">
        <ele>110.544</ele>
        <time>2010-06-10T19:31:11Z</time>
      </trkpt>
      <trkpt lat="45.364841027185321" lon="8.831128003075719">
        <ele>110.07599999999999</ele>
        <time>2010-06-10T19:31:22Z</time>
      </trkpt>
      <trkpt lat="45.365084018558264" lon="8.832003995776177">
        <ele>109.96599999999999</ele>
        <time>2010-06-10T19:31:33Z</time>
      </trkpt>
      <trkpt lat="45.365261966362596" lon="8.832630962133408">
        <ele>110.151</ele>
        <time>2010-06-10T19:31:42Z</time>
      </trkpt>
      <trkpt lat="45.36531301215291" lon="8.832740010693669">
        <ele>110.479</ele>
        <time>2010-06-10T19:31:45Z</time>
      </trkpt>
      <trkpt lat="45.365318963304162" lon="8.832743028178811">
        <ele>110.569</ele>
        <time>2010-06-10T19:31:47Z</time>
      </trkpt>
      <trkpt lat="45.365345031023026" lon="8.832890968769789">
        <ele>110.389</ele>
        <time>2010-06-10T19:32:08Z</time>
      </trkpt>
      <trkpt lat="45.365432035177946" lon="8.833243008702993">
        <ele>109.768</ele>
        <time>2010-06-10T19:32:13Z</time>
      </trkpt>
      <trkpt lat="45.365587016567588" lon="8.833814989775419">
        <ele>109.371</ele>
        <time>2010-06-10T19:32:19Z</time>
      </trkpt>
      <trkpt lat="45.365809975191951" lon="8.834624011069536">
        <ele>109.581</ele>
        <time>2010-06-10T19:32:27Z</time>
      </trkpt>
      <trkpt lat="45.365733029320836" lon="8.834922993555665">
        <ele>109.95999999999999</ele>
        <time>2010-06-10T19:32:31Z</time>
      </trkpt>
      <trkpt lat="45.36557000130415" lon="8.835014021024108">
        <ele>109.79300000000001</ele>
        <time>2010-06-10T19:32:33Z</time>
      </trkpt>
      <trkpt lat="45.365389036014676" lon="8.835238991305232">
        <ele>110.06</ele>
        <time>2010-06-10T19:32:37Z</time>
      </trkpt>
      <trkpt lat="45.365578969940543" lon="8.83572799153626">
        <ele>109.724</ele>
        <time>2010-06-10T19:32:43Z</time>
      </trkpt>
      <trkpt lat="45.365694975480437" lon="8.836075002327561">
        <ele>109.59</ele>
        <time>2010-06-10T19:32:47Z</time>
      </trkpt>
      <trkpt lat="45.365854986011982" lon="8.836517985910177">
        <ele>109.117</ele>
        <time>2010-06-10T19:32:52Z</time>
      </trkpt>
      <trkpt lat="45.36602295935154" lon="8.837149981409311">
        <ele>107.98999999999999</ele>
        <time>2010-06-10T19:32:58Z</time>
      </trkpt>
      <trkpt lat="45.366117004305124" lon="8.837686004117131">
        <ele>106.51900000000001</ele>
        <time>2010-06-10T19:33:03Z</time>
      </trkpt>
      <trkpt lat="45.366167966276407" lon="8.837899994105101">
        <ele>105.76300000000001</ele>
        <time>2010-06-10T19:33:05Z</time>
      </trkpt>
      <trkpt lat="45.366203002631664" lon="8.838341971859336">
        <ele>104.18899999999999</ele>
        <time>2010-06-10T19:33:09Z</time>
      </trkpt>
      <trkpt lat="45.366177018731833" lon="8.838827032595873">
        <ele>103.175</ele>
        <time>2010-06-10T19:33:14Z</time>
      </trkpt>
      <trkpt lat="45.366161009296775" lon="8.838872965425253">
        <ele>103.244</ele>
        <time>2010-06-10T19:33:15Z</time>
      </trkpt>
      <trkpt lat="45.366019019857049" lon="8.838884029537439">
        <ele>102.834</ele>
        <time>2010-06-10T19:33:19Z</time>
      </trkpt>
      <trkpt lat="45.365850040689111" lon="8.838860979303718">
        <ele>102.16200000000001</ele>
        <time>2010-06-10T19:33:22Z</time>
      </trkpt>
      <trkpt lat="45.365673014894128" lon="8.838874977082014">
        <ele>102.029</ele>
        <time>2010-06-10T19:33:25Z</time>
      </trkpt>
      <trkpt lat="45.365388030186296" lon="8.838859973475337">
        <ele>102.419</ele>
        <time>2010-06-10T19:33:32Z</time>
      </trkpt>
      <trkpt lat="45.365238999947906" lon="8.838866008445621">
        <ele>102.075</ele>
        <time>2010-06-10T19:33:37Z</time>
      </trkpt>
      <trkpt lat="45.365202035754919" lon="8.838857961818576">
        <ele>102.28700000000001</ele>
        <time>2010-06-10T19:33:38Z</time>
      </trkpt>
      <trkpt lat="45.364854019135237" lon="8.838914036750794">
        <ele>102.31999999999999</ele>
        <time>2010-06-10T19:33:45Z</time>
      </trkpt>
      <trkpt lat="45.364506002515554" lon="8.839048985391855">
        <ele>102.381</ele>
        <time>2010-06-10T19:33:51Z</time>
      </trkpt>
      <trkpt lat="45.364276003092527" lon="8.839198015630245">
        <ele>102.49299999999999</ele>
        <time>2010-06-10T19:33:56Z</time>
      </trkpt>
      <trkpt lat="45.364183969795704" lon="8.839263981208205">
        <ele>102.45699999999999</ele>
        <time>2010-06-10T19:33:58Z</time>
      </trkpt>
      <trkpt lat="45.36385296843946" lon="8.839463973417878">
        <ele>102.703</ele>
        <time>2010-06-10T19:34:05Z</time>
      </trkpt>
      <trkpt lat="45.363804018124938" lon="8.839484006166458">
        <ele>102.824</ele>
        <time>2010-06-10T19:34:06Z</time>
      </trkpt>
      <trkpt lat="45.36353001371026" lon="8.839529016986489">
        <ele>102.56399999999999</ele>
        <time>2010-06-10T19:34:11Z</time>
      </trkpt>
      <trkpt lat="45.363152995705605" lon="8.839712999761105">
        <ele>102.486</ele>
        <time>2010-06-10T19:34:18Z</time>
      </trkpt>
      <trkpt lat="45.362604986876249" lon="8.840066967532039">
        <ele>102.535</ele>
        <time>2010-06-10T19:34:28Z</time>
      </trkpt>
      <trkpt lat="45.362248001620173" lon="8.840296966955066">
        <ele>102.63</ele>
        <time>2010-06-10T19:34:35Z</time>
      </trkpt>
      <trkpt lat="45.361724970862269" lon="8.840629979968071">
        <ele>102.43899999999999</ele>
        <time>2010-06-10T19:34:45Z</time>
      </trkpt>
      <trkpt lat="45.361667973920703" lon="8.840654036030173">
        <ele>102.413</ele>
        <time>2010-06-10T19:34:46Z</time>
      </trkpt>
      <trkpt lat="45.36138198338449" lon="8.840618999674916">
        <ele>102.38</ele>
        <time>2010-06-10T19:34:51Z</time>
      </trkpt>
      <trkpt lat="45.360995996743441" lon="8.84039101190865">
        <ele>102.254</ele>
        <time>2010-06-10T19:34:58Z</time>
      </trkpt>
      <trkpt lat="45.360695002600551" lon="8.840380031615496">
        <ele>102.217</ele>
        <time>2010-06-10T19:35:03Z</time>
      </trkpt>
      <trkpt lat="45.360466009005904" lon="8.840341977775097">
        <ele>102.217</ele>
        <time>2010-06-10T19:35:07Z</time>
      </trkpt>
      <trkpt lat="45.360322007909417" lon="8.840251034125686">
        <ele>102.277</ele>
        <time>2010-06-10T19:35:10Z</time>
      </trkpt>
      <trkpt lat="45.360057977959514" lon="8.840019023045898">
        <ele>102.14400000000001</ele>
        <time>2010-06-10T19:35:16Z</time>
      </trkpt>
      <trkpt lat="45.359666962176561" lon="8.839692967012525">
        <ele>102.14400000000001</ele>
        <time>2010-06-10T19:35:24Z</time>
      </trkpt>
      <trkpt lat="45.359364040195942" lon="8.83953002281487">
        <ele>102.18899999999999</ele>
        <time>2010-06-10T19:35:30Z</time>
      </trkpt>
      <trkpt lat="45.359089029952884" lon="8.839432038366795">
        <ele>102.13500000000001</ele>
        <time>2010-06-10T19:35:35Z</time>
      </trkpt>
      <trkpt lat="45.358688039705157" lon="8.839356014505029">
        <ele>102.07299999999999</ele>
        <time>2010-06-10T19:35:42Z</time>
      </trkpt>
      <trkpt lat="45.358270034193993" lon="8.839378980919719">
        <ele>102.026</ele>
        <time>2010-06-10T19:35:50Z</time>
      </trkpt>
      <trkpt lat="45.357975997030735" lon="8.839483000338078">
        <ele>101.986</ele>
        <time>2010-06-10T19:35:56Z</time>
      </trkpt>
      <trkpt lat="45.357572995126247" lon="8.839564975351095">
        <ele>101.79300000000001</ele>
        <time>2010-06-10T19:36:04Z</time>
      </trkpt>
      <trkpt lat="45.357218021526933" lon="8.839614009484649">
        <ele>101.81999999999999</ele>
        <time>2010-06-10T19:36:11Z</time>
      </trkpt>
      <trkpt lat="45.356905963271856" lon="8.839679975062609">
        <ele>101.79900000000001</ele>
        <time>2010-06-10T19:36:17Z</time>
      </trkpt>
      <trkpt lat="45.35659097135067" lon="8.839802015572786">
        <ele>101.72</ele>
        <time>2010-06-10T19:36:23Z</time>
      </trkpt>
      <trkpt lat="45.35633398219943" lon="8.839935958385468">
        <ele>101.672</ele>
        <time>2010-06-10T19:36:28Z</time>
      </trkpt>
      <trkpt lat="45.35601002164185" lon="8.840246004983783">
        <ele>101.684</ele>
        <time>2010-06-10T19:36:35Z</time>
      </trkpt>
      <trkpt lat="45.355710033327341" lon="8.840654036030173">
        <ele>101.59099999999999</ele>
        <time>2010-06-10T19:36:42Z</time>
      </trkpt>
      <trkpt lat="45.355537030845881" lon="8.840996017679572">
        <ele>101.658</ele>
        <time>2010-06-10T19:36:47Z</time>
      </trkpt>
      <trkpt lat="45.355323040857911" lon="8.841520976275206">
        <ele>101.449</ele>
        <time>2010-06-10T19:36:54Z</time>
      </trkpt>
      <trkpt lat="45.355188008397818" lon="8.841990027576685">
        <ele>101.633</ele>
        <time>2010-06-10T19:37:00Z</time>
      </trkpt>
      <trkpt lat="45.355148026719689" lon="8.842151965945959">
        <ele>101.48399999999999</ele>
        <time>2010-06-10T19:37:02Z</time>
      </trkpt>
      <trkpt lat="45.355037972331047" lon="8.842809023335576">
        <ele>101.482</ele>
        <time>2010-06-10T19:37:10Z</time>
      </trkpt>
      <trkpt lat="45.355074014514685" lon="8.843359965831041">
        <ele>101.39</ele>
        <time>2010-06-10T19:37:17Z</time>
      </trkpt>
      <trkpt lat="45.355175016447902" lon="8.843800015747547">
        <ele>101.47199999999999</ele>
        <time>2010-06-10T19:37:23Z</time>
      </trkpt>
      <trkpt lat="45.355283981189132" lon="8.844140991568565">
        <ele>101.462</ele>
        <time>2010-06-10T19:37:28Z</time>
      </trkpt>
      <trkpt lat="45.355333015322685" lon="8.844638960435987">
        <ele>101.31999999999999</ele>
        <time>2010-06-10T19:37:34Z</time>
      </trkpt>
      <trkpt lat="45.355281969532371" lon="8.845084039494395">
        <ele>101.491</ele>
        <time>2010-06-10T19:37:40Z</time>
      </trkpt>
      <trkpt lat="45.355223966762424" lon="8.845305992290378">
        <ele>101.512</ele>
        <time>2010-06-10T19:37:43Z</time>
      </trkpt>
      <trkpt lat="45.355061022564769" lon="8.845505984500051">
        <ele>101.589</ele>
        <time>2010-06-10T19:37:47Z</time>
      </trkpt>
      <trkpt lat="45.354883996769786" lon="8.845493998378515">
        <ele>101.212</ele>
        <time>2010-06-10T19:37:50Z</time>
      </trkpt>
      <trkpt lat="45.354823982343078" lon="8.845459967851639">
        <ele>101.09099999999999</ele>
        <time>2010-06-10T19:37:51Z</time>
      </trkpt>
      <trkpt lat="45.354437995702028" lon="8.845135001465678">
        <ele>101.126</ele>
        <time>2010-06-10T19:37:58Z</time>
      </trkpt>
      <trkpt lat="45.354346968233585" lon="8.845036011189222">
        <ele>101.152</ele>
        <time>2010-06-10T19:38:00Z</time>
      </trkpt>
      <trkpt lat="45.354065001010895" lon="8.844892010092735">
        <ele>101.21299999999999</ele>
        <time>2010-06-10T19:38:05Z</time>
      </trkpt>
      <trkpt lat="45.353658981621265" lon="8.844801988452673">
        <ele>101.246</ele>
        <time>2010-06-10T19:38:12Z</time>
      </trkpt>
      <trkpt lat="45.353308031335473" lon="8.844766030088067">
        <ele>101.16500000000001</ele>
        <time>2010-06-10T19:38:18Z</time>
      </trkpt>
      <trkpt lat="45.353248016908765" lon="8.844767035916448">
        <ele>101.16800000000001</ele>
        <time>2010-06-10T19:38:19Z</time>
      </trkpt>
      <trkpt lat="45.353012988343835" lon="8.844854040071368">
        <ele>101.09</ele>
        <time>2010-06-10T19:38:23Z</time>
      </trkpt>
      <trkpt lat="45.3525519836694" lon="8.845165008679032">
        <ele>101.139</ele>
        <time>2010-06-10T19:38:32Z</time>
      </trkpt>
      <trkpt lat="45.352504961192608" lon="8.845201972872019">
        <ele>101.08499999999999</ele>
        <time>2010-06-10T19:38:33Z</time>
      </trkpt>
      <trkpt lat="45.352101037278771" lon="8.845626013353467">
        <ele>100.83499999999999</ele>
        <time>2010-06-10T19:38:42Z</time>
      </trkpt>
      <trkpt lat="45.351865002885461" lon="8.845915021374822">
        <ele>100.959</ele>
        <time>2010-06-10T19:38:48Z</time>
      </trkpt>
      <trkpt lat="45.351555962115526" lon="8.846152983605862">
        <ele>100.992</ele>
        <time>2010-06-10T19:38:55Z</time>
      </trkpt>
      <trkpt lat="45.351388994604349" lon="8.846326991915703">
        <ele>100.92100000000001</ele>
        <time>2010-06-10T19:38:59Z</time>
      </trkpt>
      <trkpt lat="45.351195959374309" lon="8.846794031560421">
        <ele>100.78700000000001</ele>
        <time>2010-06-10T19:39:06Z</time>
      </trkpt>
      <trkpt lat="45.351105015724897" lon="8.847313961014152">
        <ele>100.741</ele>
        <time>2010-06-10T19:39:13Z</time>
      </trkpt>
      <trkpt lat="45.351050030440092" lon="8.847687961533666">
        <ele>100.759</ele>
        <time>2010-06-10T19:39:18Z</time>
      </trkpt>
      <trkpt lat="45.351022034883499" lon="8.847839003428817">
        <ele>100.642</ele>
        <time>2010-06-10T19:39:20Z</time>
      </trkpt>
      <trkpt lat="45.350880967453122" lon="8.848170004785061">
        <ele>100.824</ele>
        <time>2010-06-10T19:39:25Z</time>
      </trkpt>
      <trkpt lat="45.350787006318569" lon="8.848252985626459">
        <ele>100.8</ele>
        <time>2010-06-10T19:39:27Z</time>
      </trkpt>
      <trkpt lat="45.350579973310232" lon="8.848379971459508">
        <ele>100.771</ele>
        <time>2010-06-10T19:39:32Z</time>
      </trkpt>
      <trkpt lat="45.350495986640453" lon="8.848451972007752">
        <ele>100.786</ele>
        <time>2010-06-10T19:39:37Z</time>
      </trkpt>
      <trkpt lat="45.350356008857489" lon="8.848551968112588">
        <ele>100.435</ele>
        <time>2010-06-10T19:39:42Z</time>
      </trkpt>
      <trkpt lat="45.350260036066175" lon="8.848657999187708">
        <ele>100.729</ele>
        <time>2010-06-10T19:39:46Z</time>
      </trkpt>
      <trkpt lat="45.35010002553463" lon="8.848853968083859">
        <ele>100.643</ele>
        <time>2010-06-10T19:39:51Z</time>
      </trkpt>
      <trkpt lat="45.350016038864851" lon="8.849000986665487">
        <ele>100.71899999999999</ele>
        <time>2010-06-10T19:39:55Z</time>
      </trkpt>
      <trkpt lat="45.349982008337975" lon="8.849142976105213">
        <ele>101.245</ele>
        <time>2010-06-10T19:40:00Z</time>
      </trkpt>
      <trkpt lat="45.350070018321276" lon="8.849170971661806">
        <ele>100.916</ele>
        <time>2010-06-10T19:40:04Z</time>
      </trkpt>
      <trkpt lat="45.350111005827785" lon="8.849140964448452">
        <ele>100.48699999999999</ele>
        <time>2010-06-10T19:40:05Z</time>
      </trkpt>
      <trkpt lat="45.350484000518918" lon="8.848870983347297">
        <ele>96.046000000000006</ele>
        <time>2010-06-10T19:40:12Z</time>
      </trkpt>
      <trkpt lat="45.35087401047349" lon="8.848844999447465">
        <ele>92.882000000000005</ele>
        <time>2010-06-10T19:40:17Z</time>
      </trkpt>
      <trkpt lat="45.35096000880003" lon="8.848857991397381">
        <ele>92.231999999999999</ele>
        <time>2010-06-10T19:40:18Z</time>
      </trkpt>
      <trkpt lat="45.351269971579313" lon="8.848996041342616">
        <ele>89.903999999999996</ele>
        <time>2010-06-10T19:40:22Z</time>
      </trkpt>
      <trkpt lat="45.351624023169279" lon="8.849127972498536">
        <ele>88.103999999999999</ele>
        <time>2010-06-10T19:40:27Z</time>
      </trkpt>
      <trkpt lat="45.352014033123851" lon="8.849488981068134">
        <ele>86.992999999999995</ele>
        <time>2010-06-10T19:40:33Z</time>
      </trkpt>
      <trkpt lat="45.35233598202467" lon="8.84969299659133">
        <ele>87.069000000000003</ele>
        <time>2010-06-10T19:40:38Z</time>
      </trkpt>
      <trkpt lat="45.352563969790936" lon="8.84995099157095">
        <ele>86.980999999999995</ele>
        <time>2010-06-10T19:40:44Z</time>
      </trkpt>
      <trkpt lat="45.352687016129494" lon="8.850104967132211">
        <ele>86.918000000000006</ele>
        <time>2010-06-10T19:40:47Z</time>
      </trkpt>
      <trkpt lat="45.352849960327148" lon="8.850169004872441">
        <ele>86.469999999999999</ele>
        <time>2010-06-10T19:40:51Z</time>
      </trkpt>
      <trkpt lat="45.352903017774224" lon="8.849988039582968">
        <ele>86.042000000000002</ele>
        <time>2010-06-10T19:40:54Z</time>
      </trkpt>
      <trkpt lat="45.352964960038662" lon="8.849775977432728">
        <ele>86.230000000000004</ele>
        <time>2010-06-10T19:40:57Z</time>
      </trkpt>
      <trkpt lat="45.353166041895747" lon="8.849622001871467">
        <ele>86.239000000000004</ele>
        <time>2010-06-10T19:41:01Z</time>
      </trkpt>
      <trkpt lat="45.353404004126787" lon="8.849534997716546">
        <ele>86.304000000000002</ele>
        <time>2010-06-10T19:41:06Z</time>
      </trkpt>
      <trkpt lat="45.353616988286376" lon="8.849315978586674">
        <ele>86.317999999999998</ele>
        <time>2010-06-10T19:41:11Z</time>
      </trkpt>
      <trkpt lat="45.353693012148142" lon="8.849198967218399">
        <ele>86.210999999999999</ele>
        <time>2010-06-10T19:41:13Z</time>
      </trkpt>
      <trkpt lat="45.353917982429266" lon="8.848969973623753">
        <ele>86.448999999999998</ele>
        <time>2010-06-10T19:41:18Z</time>
      </trkpt>
      <trkpt lat="45.354191986843944" lon="8.848903002217412">
        <ele>86.521000000000001</ele>
        <time>2010-06-10T19:41:23Z</time>
      </trkpt>
      <trkpt lat="45.354303969070315" lon="8.848854973912239">
        <ele>86.563999999999993</ele>
        <time>2010-06-10T19:41:25Z</time>
      </trkpt>
      <trkpt lat="45.354434978216887" lon="8.848692029714584">
        <ele>86.771000000000001</ele>
        <time>2010-06-10T19:41:28Z</time>
      </trkpt>
      <trkpt lat="45.354632036760449" lon="8.848459012806416">
        <ele>86.813000000000002</ele>
        <time>2010-06-10T19:41:32Z</time>
      </trkpt>
      <trkpt lat="45.354790035635233" lon="8.848305037245154">
        <ele>86.900000000000006</ele>
        <time>2010-06-10T19:41:35Z</time>
      </trkpt>
      <trkpt lat="45.354991033673286" lon="8.848063973709941">
        <ele>87.278999999999996</ele>
        <time>2010-06-10T19:41:40Z</time>
      </trkpt>
      <trkpt lat="45.35502296872437" lon="8.84801703505218">
        <ele>87.244</ele>
        <time>2010-06-10T19:41:41Z</time>
      </trkpt>
      <trkpt lat="45.355256991460919" lon="8.847677987068892">
        <ele>87.492999999999995</ele>
        <time>2010-06-10T19:41:49Z</time>
      </trkpt>
      <trkpt lat="45.355406021699309" lon="8.847534991800785">
        <ele>87.739000000000004</ele>
        <time>2010-06-10T19:41:53Z</time>
      </trkpt>
      <trkpt lat="45.355530995875597" lon="8.847364000976086">
        <ele>87.850999999999999</ele>
        <time>2010-06-10T19:41:57Z</time>
      </trkpt>
      <trkpt lat="45.355745991691947" lon="8.847010033205152">
        <ele>87.680000000000007</ele>
        <time>2010-06-10T19:42:04Z</time>
      </trkpt>
      <trkpt lat="45.355846993625164" lon="8.846859997138381">
        <ele>87.561999999999998</ele>
        <time>2010-06-10T19:42:07Z</time>
      </trkpt>
      <trkpt lat="45.355910025537014" lon="8.846751032397151">
        <ele>87.572999999999993</ele>
        <time>2010-06-10T19:42:09Z</time>
      </trkpt>
      <trkpt lat="45.356116974726319" lon="8.846531007438898">
        <ele>87.730999999999995</ele>
        <time>2010-06-10T19:42:14Z</time>
      </trkpt>
      <trkpt lat="45.356215965002775" lon="8.846522960811853">
        <ele>87.489999999999995</ele>
        <time>2010-06-10T19:42:16Z</time>
      </trkpt>
      <trkpt lat="45.356369018554688" lon="8.846475016325712">
        <ele>86.796000000000006</ele>
        <time>2010-06-10T19:42:20Z</time>
      </trkpt>
      <trkpt lat="45.356399025768042" lon="8.846436962485313">
        <ele>86.936999999999998</ele>
        <time>2010-06-10T19:42:21Z</time>
      </trkpt>
      <trkpt lat="45.356503967195749" lon="8.846193971112371">
        <ele>87.527000000000001</ele>
        <time>2010-06-10T19:42:26Z</time>
      </trkpt>
      <trkpt lat="45.35652500577271" lon="8.846095986664295">
        <ele>87.516000000000005</ele>
        <time>2010-06-10T19:42:30Z</time>
      </trkpt>
      <trkpt lat="45.356529029086232" lon="8.846049970015883">
        <ele>87.584999999999994</ele>
        <time>2010-06-10T19:42:32Z</time>
      </trkpt>
      <trkpt lat="45.356650985777378" lon="8.845950979739428">
        <ele>87.542000000000002</ele>
        <time>2010-06-10T19:42:40Z</time>
      </trkpt>
      <trkpt lat="45.356699014082551" lon="8.845967995002866">
        <ele>87.459000000000003</ele>
        <time>2010-06-10T19:42:44Z</time>
      </trkpt>
      <trkpt lat="45.3568259999156" lon="8.845961038023233">
        <ele>87.325999999999993</ele>
        <time>2010-06-10T19:42:50Z</time>
      </trkpt>
      <trkpt lat="45.356887020170689" lon="8.845927007496357">
        <ele>87.364000000000004</ele>
        <time>2010-06-10T19:42:52Z</time>
      </trkpt>
      <trkpt lat="45.357015011832118" lon="8.845674963667989">
        <ele>87.206999999999994</ele>
        <time>2010-06-10T19:42:58Z</time>
      </trkpt>
      <trkpt lat="45.357165969908237" lon="8.845493998378515">
        <ele>87.716999999999999</ele>
        <time>2010-06-10T19:43:03Z</time>
      </trkpt>
      <trkpt lat="45.357310976833105" lon="8.845320995897055">
        <ele>87.876999999999995</ele>
        <time>2010-06-10T19:43:07Z</time>
      </trkpt>
      <trkpt lat="45.357504012063146" lon="8.845002986490727">
        <ele>87.959000000000003</ele>
        <time>2010-06-10T19:43:12Z</time>
      </trkpt>
      <trkpt lat="45.357609037309885" lon="8.844935009256005">
        <ele>87.950999999999993</ele>
        <time>2010-06-10T19:43:14Z</time>
      </trkpt>
      <trkpt lat="45.357765024527907" lon="8.844858985394239">
        <ele>88.081000000000003</ele>
        <time>2010-06-10T19:43:17Z</time>
      </trkpt>
      <trkpt lat="45.357969040051103" lon="8.844613982364535">
        <ele>87.897000000000006</ele>
        <time>2010-06-10T19:43:22Z</time>
      </trkpt>
      <trkpt lat="45.358001980930567" lon="8.844552040100098">
        <ele>87.912000000000006</ele>
        <time>2010-06-10T19:43:23Z</time>
      </trkpt>
      <trkpt lat="45.35817900672555" lon="8.844270994886756">
        <ele>88.022000000000006</ele>
        <time>2010-06-10T19:43:28Z</time>
      </trkpt>
      <trkpt lat="45.35832803696394" lon="8.844002019613981">
        <ele>88.052000000000007</ele>
        <time>2010-06-10T19:43:33Z</time>
      </trkpt>
      <trkpt lat="45.358337005600333" lon="8.843962959945202">
        <ele>88.024000000000001</ele>
        <time>2010-06-10T19:43:34Z</time>
      </trkpt>
      <trkpt lat="45.358306998386979" lon="8.843886014074087">
        <ele>88.103999999999999</ele>
        <time>2010-06-10T19:43:38Z</time>
      </trkpt>
      <trkpt lat="45.358262993395329" lon="8.843851983547211">
        <ele>88.185000000000002</ele>
        <time>2010-06-10T19:43:42Z</time>
      </trkpt>
      <trkpt lat="45.35824597813189" lon="8.843841003254056">
        <ele>88.078000000000003</ele>
        <time>2010-06-10T19:43:54Z</time>
      </trkpt>
      <trkpt lat="45.358268022537231" lon="8.843740001320839">
        <ele>87.924999999999997</ele>
        <time>2010-06-10T19:43:58Z</time>
      </trkpt>
      <trkpt lat="45.358354020863771" lon="8.84350698441267">
        <ele>87.935000000000002</ele>
        <time>2010-06-10T19:44:04Z</time>
      </trkpt>
      <trkpt lat="45.358357960358262" lon="8.843473959714174">
        <ele>88.146000000000001</ele>
        <time>2010-06-10T19:44:07Z</time>
      </trkpt>
      <trkpt lat="45.358375981450081" lon="8.843344040215015">
        <ele>88.234999999999999</ele>
        <time>2010-06-10T19:45:01Z</time>
      </trkpt>
      <trkpt lat="45.35837396979332" lon="8.843342028558254">
        <ele>88.180999999999997</ele>
        <time>2010-06-10T19:45:03Z</time>
      </trkpt>
      <trkpt lat="45.358391990885139" lon="8.843258963897824">
        <ele>88.129999999999995</ele>
        <time>2010-06-10T19:45:09Z</time>
      </trkpt>
      <trkpt lat="45.358472960069776" lon="8.843002980574966">
        <ele>87.834000000000003</ele>
        <time>2010-06-10T19:45:14Z</time>
      </trkpt>
      <trkpt lat="45.358514031395316" lon="8.842877000570297">
        <ele>87.896000000000001</ele>
        <time>2010-06-10T19:45:16Z</time>
      </trkpt>
      <trkpt lat="45.358552001416683" lon="8.842748003080487">
        <ele>87.805000000000007</ele>
        <time>2010-06-10T19:45:18Z</time>
      </trkpt>
      <trkpt lat="45.358757022768259" lon="8.842171998694539">
        <ele>87.828999999999994</ele>
        <time>2010-06-10T19:45:26Z</time>
      </trkpt>
      <trkpt lat="45.358849978074431" lon="8.841863963752985">
        <ele>87.938999999999993</ele>
        <time>2010-06-10T19:45:30Z</time>
      </trkpt>
      <trkpt lat="45.358959026634693" lon="8.84172398597002">
        <ele>88.224000000000004</ele>
        <time>2010-06-10T19:45:33Z</time>
      </trkpt>
      <trkpt lat="45.359004037454724" lon="8.841725997626782">
        <ele>88.231999999999999</ele>
        <time>2010-06-10T19:45:34Z</time>
      </trkpt>
      <trkpt lat="45.359345013275743" lon="8.84178701788187">
        <ele>88.113</ele>
        <time>2010-06-10T19:45:40Z</time>
      </trkpt>
      <trkpt lat="45.359836025163531" lon="8.841857006773353">
        <ele>88.296000000000006</ele>
        <time>2010-06-10T19:45:48Z</time>
      </trkpt>
      <trkpt lat="45.360298035666347" lon="8.841931018978357">
        <ele>88.433000000000007</ele>
        <time>2010-06-10T19:45:55Z</time>
      </trkpt>
      <trkpt lat="45.36084596067667" lon="8.84202104061842">
        <ele>88.942999999999998</ele>
        <time>2010-06-10T19:46:03Z</time>
      </trkpt>
      <trkpt lat="45.36138198338449" lon="8.842115001752973">
        <ele>88.986999999999995</ele>
        <time>2010-06-10T19:46:11Z</time>
      </trkpt>
      <trkpt lat="45.361826978623867" lon="8.842201000079513">
        <ele>88.953000000000003</ele>
        <time>2010-06-10T19:46:18Z</time>
      </trkpt>
      <trkpt lat="45.362211959436536" lon="8.842300996184349">
        <ele>89.281000000000006</ele>
        <time>2010-06-10T19:46:24Z</time>
      </trkpt>
      <trkpt lat="45.362388985231519" lon="8.842212986201048">
        <ele>89.397999999999996</ele>
        <time>2010-06-10T19:46:29Z</time>
      </trkpt>
      <trkpt lat="45.362395020201802" lon="8.842103015631437">
        <ele>89.388000000000005</ele>
        <time>2010-06-10T19:46:31Z</time>
      </trkpt>
      <trkpt lat="45.362388985231519" lon="8.841865975409746">
        <ele>89.403999999999996</ele>
        <time>2010-06-10T19:46:35Z</time>
      </trkpt>
      <trkpt lat="45.362465009093285" lon="8.841732032597065">
        <ele>89.762</ele>
        <time>2010-06-10T19:46:39Z</time>
      </trkpt>
      <trkpt lat="45.36269299685955" lon="8.841661959886551">
        <ele>89.706999999999994</ele>
        <time>2010-06-10T19:46:45Z</time>
      </trkpt>
      <trkpt lat="45.363027015700936" lon="8.841619966551662">
        <ele>89.756</ele>
        <time>2010-06-10T19:46:53Z</time>
      </trkpt>
      <trkpt lat="45.363109996542335" lon="8.84161401540041">
        <ele>89.814999999999998</ele>
        <time>2010-06-10T19:46:55Z</time>
      </trkpt>
      <trkpt lat="45.363193983212113" lon="8.841484012082219">
        <ele>89.828999999999994</ele>
        <time>2010-06-10T19:46:59Z</time>
      </trkpt>
      <trkpt lat="45.363181997090578" lon="8.841377981007099">
        <ele>89.926000000000002</ele>
        <time>2010-06-10T19:47:01Z</time>
      </trkpt>
      <trkpt lat="45.363102033734322" lon="8.840941032394767">
        <ele>90.421000000000006</ele>
        <time>2010-06-10T19:47:09Z</time>
      </trkpt>
      <trkpt lat="45.363125000149012" lon="8.840835001319647">
        <ele>90.5</ele>
        <time>2010-06-10T19:47:11Z</time>
      </trkpt>
      <trkpt lat="45.363260032609105" lon="8.840687982738018">
        <ele>90.643000000000001</ele>
        <time>2010-06-10T19:47:15Z</time>
      </trkpt>
      <trkpt lat="45.363648030906916" lon="8.840478016063571">
        <ele>90.828000000000003</ele>
        <time>2010-06-10T19:47:24Z</time>
      </trkpt>
      <trkpt lat="45.363824972882867" lon="8.840319011360407">
        <ele>91.185000000000002</ele>
        <time>2010-06-10T19:47:29Z</time>
      </trkpt>
      <trkpt lat="45.364144993945956" lon="8.840064033865929">
        <ele>91.135999999999996</ele>
        <time>2010-06-10T19:47:37Z</time>
      </trkpt>
      <trkpt lat="45.364437019452453" lon="8.839824981987476">
        <ele>91.221000000000004</ele>
        <time>2010-06-10T19:47:44Z</time>
      </trkpt>
      <trkpt lat="45.364790987223387" lon="8.839605040848255">
        <ele>91.055000000000007</ele>
        <time>2010-06-10T19:47:51Z</time>
      </trkpt>
      <trkpt lat="45.365192983299494" lon="8.839415023103356">
        <ele>90.891000000000005</ele>
        <time>2010-06-10T19:47:57Z</time>
      </trkpt>
      <trkpt lat="45.365746021270752" lon="8.839163985103369">
        <ele>91.613</ele>
        <time>2010-06-10T19:48:05Z</time>
      </trkpt>
      <trkpt lat="45.366118010133505" lon="8.839088967069984">
        <ele>94.441999999999993</ele>
        <time>2010-06-10T19:48:11Z</time>
      </trkpt>
      <trkpt lat="45.366207025945187" lon="8.839101037010551">
        <ele>95.415000000000006</ele>
        <time>2010-06-10T19:48:13Z</time>
      </trkpt>
      <trkpt lat="45.366298975422978" lon="8.839174965396524">
        <ele>95.391000000000005</ele>
        <time>2010-06-10T19:48:15Z</time>
      </trkpt>
      <trkpt lat="45.36668898537755" lon="8.839551983401179">
        <ele>91.588999999999999</ele>
        <time>2010-06-10T19:48:22Z</time>
      </trkpt>
      <trkpt lat="45.366876991465688" lon="8.839615015313029">
        <ele>90.969999999999999</ele>
        <time>2010-06-10T19:48:26Z</time>
      </trkpt>
      <trkpt lat="45.367080001160502" lon="8.839496998116374">
        <ele>90.769999999999996</ele>
        <time>2010-06-10T19:48:30Z</time>
      </trkpt>
      <trkpt lat="45.367185026407242" lon="8.839448969811201">
        <ele>90.643000000000001</ele>
        <time>2010-06-10T19:48:32Z</time>
      </trkpt>
      <trkpt lat="45.367349982261658" lon="8.839249983429909">
        <ele>90.635000000000005</ele>
        <time>2010-06-10T19:48:36Z</time>
      </trkpt>
      <trkpt lat="45.367536982521415" lon="8.839144958183169">
        <ele>90.754999999999995</ele>
        <time>2010-06-10T19:48:40Z</time>
      </trkpt>
      <trkpt lat="45.36763496696949" lon="8.839130960404873">
        <ele>90.813000000000002</ele>
        <time>2010-06-10T19:48:42Z</time>
      </trkpt>
      <trkpt lat="45.367809981107712" lon="8.839248977601528">
        <ele>90.519000000000005</ele>
        <time>2010-06-10T19:48:46Z</time>
      </trkpt>
      <trkpt lat="45.367889022454619" lon="8.839345034211874">
        <ele>90.382999999999996</ele>
        <time>2010-06-10T19:48:48Z</time>
      </trkpt>
      <trkpt lat="45.367978038266301" lon="8.839427009224892">
        <ele>90.022000000000006</ele>
        <time>2010-06-10T19:48:50Z</time>
      </trkpt>
      <trkpt lat="45.368182975798845" lon="8.839440001174808">
        <ele>89.820999999999998</ele>
        <time>2010-06-10T19:48:54Z</time>
      </trkpt>
      <trkpt lat="45.36823402158916" lon="8.839410999789834">
        <ele>89.695999999999998</ele>
        <time>2010-06-10T19:48:55Z</time>
      </trkpt>
      <trkpt lat="45.368580026552081" lon="8.839216036722064">
        <ele>89.897000000000006</ele>
        <time>2010-06-10T19:49:02Z</time>
      </trkpt>
      <trkpt lat="45.368775995448232" lon="8.839044040068984">
        <ele>89.738</ele>
        <time>2010-06-10T19:49:06Z</time>
      </trkpt>
      <trkpt lat="45.369031978771091" lon="8.838940020650625">
        <ele>89.834000000000003</ele>
        <time>2010-06-10T19:49:11Z</time>
      </trkpt>
      <trkpt lat="45.36913800984621" lon="8.838935997337103">
        <ele>89.837999999999994</ele>
        <time>2010-06-10T19:49:13Z</time>
      </trkpt>
      <trkpt lat="45.369397010654211" lon="8.838837007060647">
        <ele>89.978999999999999</ele>
        <time>2010-06-10T19:49:18Z</time>
      </trkpt>
      <trkpt lat="45.369928004220128" lon="8.838579012081027">
        <ele>89.912000000000006</ele>
        <time>2010-06-10T19:49:28Z</time>
      </trkpt>
      <trkpt lat="45.370390014722943" lon="8.838357981294394">
        <ele>89.944999999999993</ele>
        <time>2010-06-10T19:49:37Z</time>
      </trkpt>
      <trkpt lat="45.370494034141302" lon="8.838311964645982">
        <ele>89.727000000000004</ele>
        <time>2010-06-10T19:49:39Z</time>
      </trkpt>
      <trkpt lat="45.370683968067169" lon="8.838138040155172">
        <ele>89.786000000000001</ele>
        <time>2010-06-10T19:49:43Z</time>
      </trkpt>
      <trkpt lat="45.370759991928935" lon="8.838023040443659">
        <ele>89.897000000000006</ele>
        <time>2010-06-10T19:49:45Z</time>
      </trkpt>
      <trkpt lat="45.37104899995029" lon="8.837783988565207">
        <ele>89.716999999999999</ele>
        <time>2010-06-10T19:49:51Z</time>
      </trkpt>
      <trkpt lat="45.371150001883507" lon="8.837711988016963">
        <ele>89.671999999999997</ele>
        <time>2010-06-10T19:49:53Z</time>
      </trkpt>
      <trkpt lat="45.371248992159963" lon="8.837476037442684">
        <ele>89.841999999999999</ele>
        <time>2010-06-10T19:49:57Z</time>
      </trkpt>
      <trkpt lat="45.371240023523569" lon="8.837178982794285">
        <ele>90.072000000000003</ele>
        <time>2010-06-10T19:50:01Z</time>
      </trkpt>
      <trkpt lat="45.371355023235083" lon="8.836835995316505">
        <ele>89.971999999999994</ele>
        <time>2010-06-10T19:50:06Z</time>
      </trkpt>
      <trkpt lat="45.371571024879813" lon="8.836484961211681">
        <ele>90.078000000000003</ele>
        <time>2010-06-10T19:50:12Z</time>
      </trkpt>
      <trkpt lat="45.371884005144238" lon="8.836126970127225">
        <ele>90.646000000000001</ele>
        <time>2010-06-10T19:50:20Z</time>
      </trkpt>
      <trkpt lat="45.372189022600651" lon="8.835866963490844">
        <ele>90.994</ele>
        <time>2010-06-10T19:50:27Z</time>
      </trkpt>
      <trkpt lat="45.372631000354886" lon="8.835607962682843">
        <ele>90.875</ele>
        <time>2010-06-10T19:50:36Z</time>
      </trkpt>
      <trkpt lat="45.372998965904117" lon="8.835417022928596">
        <ele>91.570999999999998</ele>
        <time>2010-06-10T19:50:44Z</time>
      </trkpt>
      <trkpt lat="45.37311396561563" lon="8.83516900241375">
        <ele>91.935000000000002</ele>
        <time>2010-06-10T19:50:50Z</time>
      </trkpt>
      <trkpt lat="45.373207004740834" lon="8.8349540065974">
        <ele>91.870999999999995</ele>
        <time>2010-06-10T19:50:54Z</time>
      </trkpt>
      <trkpt lat="45.373270958662033" lon="8.834787039086223">
        <ele>91.777000000000001</ele>
        <time>2010-06-10T19:50:57Z</time>
      </trkpt>
      <trkpt lat="45.373297026380897" lon="8.834419995546341">
        <ele>92.394999999999996</ele>
        <time>2010-06-10T19:51:03Z</time>
      </trkpt>
      <trkpt lat="45.373286968097091" lon="8.834356041625142">
        <ele>92.418999999999997</ele>
        <time>2010-06-10T19:51:04Z</time>
      </trkpt>
      <trkpt lat="45.37315595895052" lon="8.833938958123326">
        <ele>92.640000000000001</ele>
        <time>2010-06-10T19:51:11Z</time>
      </trkpt>
      <trkpt lat="45.373136010020971" lon="8.83387902751565">
        <ele>92.587000000000003</ele>
        <time>2010-06-10T19:51:12Z</time>
      </trkpt>
      <trkpt lat="45.373146990314126" lon="8.833614997565746">
        <ele>92.165000000000006</ele>
        <time>2010-06-10T19:51:16Z</time>
      </trkpt>
      <trkpt lat="45.373202981427312" lon="8.833496980369091">
        <ele>91.843000000000004</ele>
        <time>2010-06-10T19:51:18Z</time>
      </trkpt>
      <trkpt lat="45.373487966135144" lon="8.833057014271617">
        <ele>91.584999999999994</ele>
        <time>2010-06-10T19:51:26Z</time>
      </trkpt>
      <trkpt lat="45.373586034402251" lon="8.832917036488652">
        <ele>91.902000000000001</ele>
        <time>2010-06-10T19:51:29Z</time>
      </trkpt>
      <trkpt lat="45.373612018302083" lon="8.832708997651935">
        <ele>92.248999999999995</ele>
        <time>2010-06-10T19:51:33Z</time>
      </trkpt>
      <trkpt lat="45.37356298416853" lon="8.832596009597182">
        <ele>92.337000000000003</ele>
        <time>2010-06-10T19:51:35Z</time>
      </trkpt>
      <trkpt lat="45.373544963076711" lon="8.832361986860633">
        <ele>92.808999999999997</ele>
        <time>2010-06-10T19:51:39Z</time>
      </trkpt>
      <trkpt lat="45.373610006645322" lon="8.832284035161138">
        <ele>93.010000000000005</ele>
        <time>2010-06-10T19:51:41Z</time>
      </trkpt>
      <trkpt lat="45.373862972483039" lon="8.832070967182517">
        <ele>93.706000000000003</ele>
        <time>2010-06-10T19:51:47Z</time>
      </trkpt>
      <trkpt lat="45.373934973031282" lon="8.831854965537787">
        <ele>94.995000000000005</ele>
        <time>2010-06-10T19:51:51Z</time>
      </trkpt>
      <trkpt lat="45.373966991901398" lon="8.831505021080375">
        <ele>94.903999999999996</ele>
        <time>2010-06-10T19:51:56Z</time>
      </trkpt>
      <trkpt lat="45.374018037691712" lon="8.831355990841985">
        <ele>94.813000000000002</ele>
        <time>2010-06-10T19:51:58Z</time>
      </trkpt>
      <trkpt lat="45.374094983562827" lon="8.831100007519126">
        <ele>95.778999999999996</ele>
        <time>2010-06-10T19:52:02Z</time>
      </trkpt>
      <trkpt lat="45.374047961086035" lon="8.830853998661041">
        <ele>97.793999999999997</ele>
        <time>2010-06-10T19:52:07Z</time>
      </trkpt>
      <trkpt lat="45.373956011608243" lon="8.830875037238002">
        <ele>98.593000000000004</ele>
        <time>2010-06-10T19:52:10Z</time>
      </trkpt>
      <trkpt lat="45.373924998566508" lon="8.830898003652692">
        <ele>99.022000000000006</ele>
        <time>2010-06-10T19:52:11Z</time>
      </trkpt>
      <trkpt lat="45.373809998854995" lon="8.830949971452355">
        <ele>100.444</ele>
        <time>2010-06-10T19:52:15Z</time>
      </trkpt>
      <trkpt lat="45.373715031892061" lon="8.830791972577572">
        <ele>101.72799999999999</ele>
        <time>2010-06-10T19:52:20Z</time>
      </trkpt>
      <trkpt lat="45.373634984716773" lon="8.830605978146195">
        <ele>103.621</ele>
        <time>2010-06-10T19:52:27Z</time>
      </trkpt>
      <trkpt lat="45.373505987226963" lon="8.830641014501452">
        <ele>104.53700000000001</ele>
        <time>2010-06-10T19:52:32Z</time>
      </trkpt>
      <trkpt lat="45.373458964750171" lon="8.830660041421652">
        <ele>104.836</ele>
        <time>2010-06-10T19:52:34Z</time>
      </trkpt>
      <trkpt lat="45.373310018330812" lon="8.83063598535955">
        <ele>106.658</ele>
        <time>2010-06-10T19:52:41Z</time>
      </trkpt>
      <trkpt lat="45.373205998912454" lon="8.830573037266731">
        <ele>107.667</ele>
        <time>2010-06-10T19:52:47Z</time>
      </trkpt>
      <trkpt lat="45.373106002807617" lon="8.83033499121666">
        <ele>108.72199999999999</ele>
        <time>2010-06-10T19:52:55Z</time>
      </trkpt>
      <trkpt lat="45.373029978945851" lon="8.830027962103486">
        <ele>109.30500000000001</ele>
        <time>2010-06-10T19:53:03Z</time>
      </trkpt>
      <trkpt lat="45.372951021417975" lon="8.829698972404003">
        <ele>109.748</ele>
        <time>2010-06-10T19:53:11Z</time>
      </trkpt>
      <trkpt lat="45.372878015041351" lon="8.829410970211029">
        <ele>110.56999999999999</ele>
        <time>2010-06-10T19:53:18Z</time>
      </trkpt>
      <trkpt lat="45.372775001451373" lon="8.829016014933586">
        <ele>110.727</ele>
        <time>2010-06-10T19:53:27Z</time>
      </trkpt>
      <trkpt lat="45.372662013396621" lon="8.828606978058815">
        <ele>110.67</ele>
        <time>2010-06-10T19:53:36Z</time>
      </trkpt>
      <trkpt lat="45.372687997296453" lon="8.828420983627439">
        <ele>110.91500000000001</ele>
        <time>2010-06-10T19:53:41Z</time>
      </trkpt>
      <trkpt lat="45.37276603281498" lon="8.828289974480867">
        <ele>110.961</ele>
        <time>2010-06-10T19:53:47Z</time>
      </trkpt>
      <trkpt lat="45.372863011434674" lon="8.82818796671927">
        <ele>110.767</ele>
        <time>2010-06-10T19:53:55Z</time>
      </trkpt>
      <trkpt lat="45.372980022802949" lon="8.828071039170027">
        <ele>110.90900000000001</ele>
        <time>2010-06-10T19:54:04Z</time>
      </trkpt>
      <trkpt lat="45.373147996142507" lon="8.827904993668199">
        <ele>110.95999999999999</ele>
        <time>2010-06-10T19:54:14Z</time>
      </trkpt>
      <trkpt lat="45.3732830286026" lon="8.827777002006769">
        <ele>110.798</ele>
        <time>2010-06-10T19:54:22Z</time>
      </trkpt>
      <trkpt lat="45.373402973636985" lon="8.827658984810114">
        <ele>110.786</ele>
        <time>2010-06-10T19:54:29Z</time>
      </trkpt>
      <trkpt lat="45.373529037460685" lon="8.827528981491923">
        <ele>110.70099999999999</ele>
        <time>2010-06-10T19:54:36Z</time>
      </trkpt>
      <trkpt lat="45.373681001365185" lon="8.827378023415804">
        <ele>110.776</ele>
        <time>2010-06-10T19:54:43Z</time>
      </trkpt>
      <trkpt lat="45.373878981918097" lon="8.827188005670905">
        <ele>110.81699999999999</ele>
        <time>2010-06-10T19:54:52Z</time>
      </trkpt>
      <trkpt lat="45.374064976349473" lon="8.827009974047542">
        <ele>111.095</ele>
        <time>2010-06-10T19:55:01Z</time>
      </trkpt>
      <trkpt lat="45.374174024909735" lon="8.826904026791453">
        <ele>111.19199999999999</ele>
        <time>2010-06-10T19:55:09Z</time>
      </trkpt>
      <trkpt lat="45.374331017956138" lon="8.826745022088289">
        <ele>111.14100000000001</ele>
        <time>2010-06-10T19:55:18Z</time>
      </trkpt>
      <trkpt lat="45.374523969367146" lon="8.826557016000152">
        <ele>111.35299999999999</ele>
        <time>2010-06-10T19:55:28Z</time>
      </trkpt>
      <trkpt lat="45.374651039019227" lon="8.826400022953749">
        <ele>111.06399999999999</ele>
        <time>2010-06-10T19:55:36Z</time>
      </trkpt>
      <trkpt lat="45.374651039019227" lon="8.826397005468607">
        <ele>111.057</ele>
        <time>2010-06-10T19:55:38Z</time>
      </trkpt>
      <trkpt lat="45.374707030132413" lon="8.826434975489974">
        <ele>111.059</ele>
        <time>2010-06-10T19:55:54Z</time>
      </trkpt>
      <trkpt lat="45.374707030132413" lon="8.826435981318355">
        <ele>111.02800000000001</ele>
        <time>2010-06-10T19:55:55Z</time>
      </trkpt>
      <trkpt lat="45.374713987112045" lon="8.826303966343403">
        <ele>110.84999999999999</ele>
        <time>2010-06-10T19:56:18Z</time>
      </trkpt>
      <trkpt lat="45.374955972656608" lon="8.825908005237579">
        <ele>110.533</ele>
        <time>2010-06-10T19:56:27Z</time>
      </trkpt>
      <trkpt lat="45.375138027593493" lon="8.825585972517729">
        <ele>110.879</ele>
        <time>2010-06-10T19:56:34Z</time>
      </trkpt>
      <trkpt lat="45.375302983447909" lon="8.825315991416574">
        <ele>110.889</ele>
        <time>2010-06-10T19:56:40Z</time>
      </trkpt>
      <trkpt lat="45.375589979812503" lon="8.824844006448984">
        <ele>110.54300000000001</ele>
        <time>2010-06-10T19:56:49Z</time>
      </trkpt>
      <trkpt lat="45.375894997268915" lon="8.824327010661364">
        <ele>110.47499999999999</ele>
        <time>2010-06-10T19:56:58Z</time>
      </trkpt>
      <trkpt lat="45.375961968675256" lon="8.8239970151335">
        <ele>110.69</ele>
        <time>2010-06-10T19:57:03Z</time>
      </trkpt>
      <trkpt lat="45.375894997268915" lon="8.823810014873743">
        <ele>110.70999999999999</ele>
        <time>2010-06-10T19:57:06Z</time>
      </trkpt>
      <trkpt lat="45.375632978975773" lon="8.82328798994422">
        <ele>110.527</ele>
        <time>2010-06-10T19:57:15Z</time>
      </trkpt>
      <trkpt lat="45.375395016744733" lon="8.822866966947913">
        <ele>110.599</ele>
        <time>2010-06-10T19:57:23Z</time>
      </trkpt>
      <trkpt lat="45.375232994556427" lon="8.822560021653771">
        <ele>111.22499999999999</ele>
        <time>2010-06-10T19:57:30Z</time>
      </trkpt>
      <trkpt lat="45.375225031748414" lon="8.82247100584209">
        <ele>111.137</ele>
        <time>2010-06-10T19:57:32Z</time>
      </trkpt>
      <trkpt lat="45.375326033681631" lon="8.822323987260461">
        <ele>110.824</ele>
        <time>2010-06-10T19:57:36Z</time>
      </trkpt>
      <trkpt lat="45.37566801533103" lon="8.822087030857801">
        <ele>110.655</ele>
        <time>2010-06-10T19:57:44Z</time>
      </trkpt>
      <trkpt lat="45.376094989478588" lon="8.821757035329938">
        <ele>110.905</ele>
        <time>2010-06-10T19:57:54Z</time>
      </trkpt>
      <trkpt lat="45.376132959499955" lon="8.821728033944964">
        <ele>110.911</ele>
        <time>2010-06-10T19:57:55Z</time>
      </trkpt>
      <trkpt lat="45.376439988613129" lon="8.821503985673189">
        <ele>111.27800000000001</ele>
        <time>2010-06-10T19:58:03Z</time>
      </trkpt>
      <trkpt lat="45.376684991642833" lon="8.82131103426218">
        <ele>111.376</ele>
        <time>2010-06-10T19:58:09Z</time>
      </trkpt>
      <trkpt lat="45.37689495831728" lon="8.821186982095242">
        <ele>111.363</ele>
        <time>2010-06-10T19:58:14Z</time>
      </trkpt>
      <trkpt lat="45.377325033769011" lon="8.821030994877219">
        <ele>111.36799999999999</ele>
        <time>2010-06-10T19:58:23Z</time>
      </trkpt>
      <trkpt lat="45.377768017351627" lon="8.820867966860533">
        <ele>111.021</ele>
        <time>2010-06-10T19:58:32Z</time>
      </trkpt>
      <trkpt lat="45.378208989277482" lon="8.820698987692595">
        <ele>110.655</ele>
        <time>2010-06-10T19:58:41Z</time>
      </trkpt>
      <trkpt lat="45.378588018938899" lon="8.820525985211134">
        <ele>110.72199999999999</ele>
        <time>2010-06-10T19:58:49Z</time>
      </trkpt>
      <trkpt lat="45.379097973927855" lon="8.820326998829842">
        <ele>111.146</ele>
        <time>2010-06-10T19:59:00Z</time>
      </trkpt>
      <trkpt lat="45.379653023555875" lon="8.820116026327014">
        <ele>111.214</ele>
        <time>2010-06-10T19:59:12Z</time>
      </trkpt>
      <trkpt lat="45.380081003531814" lon="8.819955009967089">
        <ele>111.333</ele>
        <time>2010-06-10T19:59:21Z</time>
      </trkpt>
      <trkpt lat="45.380397001281381" lon="8.819842021912336">
        <ele>111.376</ele>
        <time>2010-06-10T19:59:28Z</time>
      </trkpt>
      <trkpt lat="45.380877032876015" lon="8.819671031087637">
        <ele>111.21299999999999</ele>
        <time>2010-06-10T19:59:38Z</time>
      </trkpt>
      <trkpt lat="45.381336025893688" lon="8.819505991414189">
        <ele>111.548</ele>
        <time>2010-06-10T19:59:48Z</time>
      </trkpt>
      <trkpt lat="45.381703991442919" lon="8.819376993924379">
        <ele>111.833</ele>
        <time>2010-06-10T19:59:56Z</time>
      </trkpt>
      <trkpt lat="45.382029041647911" lon="8.819265011698008">
        <ele>112.116</ele>
        <time>2010-06-10T20:00:03Z</time>
      </trkpt>
      <trkpt lat="45.382556011900306" lon="8.819075999781489">
        <ele>111.974</ele>
        <time>2010-06-10T20:00:14Z</time>
      </trkpt>
      <trkpt lat="45.383116006851196" lon="8.818876007571816">
        <ele>112.12</ele>
        <time>2010-06-10T20:00:26Z</time>
      </trkpt>
      <trkpt lat="45.383304012939334" lon="8.818809036165476">
        <ele>112.197</ele>
        <time>2010-06-10T20:00:30Z</time>
      </trkpt>
      <trkpt lat="45.38346997462213" lon="8.818881958723068">
        <ele>112.34999999999999</ele>
        <time>2010-06-10T20:00:34Z</time>
      </trkpt>
      <trkpt lat="45.383507022634149" lon="8.819011962041259">
        <ele>112.35299999999999</ele>
        <time>2010-06-10T20:00:36Z</time>
      </trkpt>
      <trkpt lat="45.383616993203759" lon="8.819670025259256">
        <ele>112.398</ele>
        <time>2010-06-10T20:00:45Z</time>
      </trkpt>
      <trkpt lat="45.383731992915273" lon="8.820377960801125">
        <ele>112.502</ele>
        <time>2010-06-10T20:00:55Z</time>
      </trkpt>
      <trkpt lat="45.383816985413432" lon="8.820899985730648">
        <ele>112.75700000000001</ele>
        <time>2010-06-10T20:01:03Z</time>
      </trkpt>
      <trkpt lat="45.383914969861507" lon="8.821474984288216">
        <ele>112.54900000000001</ele>
        <time>2010-06-10T20:01:11Z</time>
      </trkpt>
      <trkpt lat="45.383975990116596" lon="8.821833981201053">
        <ele>112.768</ele>
        <time>2010-06-10T20:01:16Z</time>
      </trkpt>
      <trkpt lat="45.384099958464503" lon="8.821973958984017">
        <ele>112.76600000000001</ele>
        <time>2010-06-10T20:01:20Z</time>
      </trkpt>
      <trkpt lat="45.384144969284534" lon="8.821961972862482">
        <ele>112.815</ele>
        <time>2010-06-10T20:01:21Z</time>
      </trkpt>
      <trkpt lat="45.384572027251124" lon="8.821780001744628">
        <ele>113.19199999999999</ele>
        <time>2010-06-10T20:01:30Z</time>
      </trkpt>
      <trkpt lat="45.384858017787337" lon="8.821644969284535">
        <ele>113.34699999999999</ele>
        <time>2010-06-10T20:01:36Z</time>
      </trkpt>
      <trkpt lat="45.385392028838396" lon="8.821281027048826">
        <ele>113.139</ele>
        <time>2010-06-10T20:01:47Z</time>
      </trkpt>
      <trkpt lat="45.385802993550897" lon="8.821005010977387">
        <ele>113.178</ele>
        <time>2010-06-10T20:01:56Z</time>
      </trkpt>
      <trkpt lat="45.386202977970243" lon="8.820734024047852">
        <ele>113.42</ele>
        <time>2010-06-10T20:02:05Z</time>
      </trkpt>
      <trkpt lat="45.386656019836664" lon="8.820434035733342">
        <ele>113.482</ele>
        <time>2010-06-10T20:02:15Z</time>
      </trkpt>
      <trkpt lat="45.387020967900753" lon="8.820190038532019">
        <ele>113.494</ele>
        <time>2010-06-10T20:02:23Z</time>
      </trkpt>
      <trkpt lat="45.387522960081697" lon="8.819848978891969">
        <ele>113.52800000000001</ele>
        <time>2010-06-10T20:02:34Z</time>
      </trkpt>
      <trkpt lat="45.387982036918402" lon="8.819555025547743">
        <ele>113.845</ele>
        <time>2010-06-10T20:02:44Z</time>
      </trkpt>
      <trkpt lat="45.388352014124393" lon="8.819311028346419">
        <ele>113.44799999999999</ele>
        <time>2010-06-10T20:02:52Z</time>
      </trkpt>
      <trkpt lat="45.38883900269866" lon="8.819011962041259">
        <ele>113.495</ele>
        <time>2010-06-10T20:03:03Z</time>
      </trkpt>
      <trkpt lat="45.389280980452895" lon="8.818752039223909">
        <ele>113.30200000000001</ele>
        <time>2010-06-10T20:03:13Z</time>
      </trkpt>
      <trkpt lat="45.389635032042861" lon="8.818546012043953">
        <ele>113.48399999999999</ele>
        <time>2010-06-10T20:03:21Z</time>
      </trkpt>
      <trkpt lat="45.39008698426187" lon="8.818295979872346">
        <ele>113.622</ele>
        <time>2010-06-10T20:03:31Z</time>
      </trkpt>
      <trkpt lat="45.390271972864866" lon="8.818203024566174">
        <ele>113.65000000000001</ele>
        <time>2010-06-10T20:03:35Z</time>
      </trkpt>
      <trkpt lat="45.390359982848167" lon="8.818038990721107">
        <ele>113.733</ele>
        <time>2010-06-10T20:03:39Z</time>
      </trkpt>
      <trkpt lat="45.390352020040154" lon="8.817977970466018">
        <ele>113.729</ele>
        <time>2010-06-10T20:03:40Z</time>
      </trkpt>
      <trkpt lat="45.390290999785066" lon="8.817582009360194">
        <ele>114.175</ele>
        <time>2010-06-10T20:03:46Z</time>
      </trkpt>
      <trkpt lat="45.390354031696916" lon="8.817367013543844">
        <ele>114.286</ele>
        <time>2010-06-10T20:03:50Z</time>
      </trkpt>
      <trkpt lat="45.390400970354676" lon="8.817342035472393">
        <ele>114.276</ele>
        <time>2010-06-10T20:03:51Z</time>
      </trkpt>
      <trkpt lat="45.39103196002543" lon="8.817043974995613">
        <ele>114.628</ele>
        <time>2010-06-10T20:04:04Z</time>
      </trkpt>
      <trkpt lat="45.391511991620064" lon="8.816812969744206">
        <ele>114.892</ele>
        <time>2010-06-10T20:04:14Z</time>
      </trkpt>
      <trkpt lat="45.391683988273144" lon="8.816742980852723">
        <ele>114.85899999999999</ele>
        <time>2010-06-10T20:04:19Z</time>
      </trkpt>
      <trkpt lat="45.391853973269463" lon="8.816661005839706">
        <ele>114.703</ele>
        <time>2010-06-10T20:04:23Z</time>
      </trkpt>
      <trkpt lat="45.39186897687614" lon="8.816464031115174">
        <ele>114.86499999999999</ele>
        <time>2010-06-10T20:04:27Z</time>
      </trkpt>
      <trkpt lat="45.391744002699852" lon="8.815928008407354">
        <ele>114.956</ele>
        <time>2010-06-10T20:04:35Z</time>
      </trkpt>
      <trkpt lat="45.391597989946604" lon="8.815313028171659">
        <ele>114.94199999999999</ele>
        <time>2010-06-10T20:04:44Z</time>
      </trkpt>
      <trkpt lat="45.391461029648781" lon="8.814745992422104">
        <ele>114.733</ele>
        <time>2010-06-10T20:04:52Z</time>
      </trkpt>
      <trkpt lat="45.391344018280506" lon="8.814237965270877">
        <ele>114.616</ele>
        <time>2010-06-10T20:04:59Z</time>
      </trkpt>
      <trkpt lat="45.391173027455807" lon="8.813521983101964">
        <ele>114.384</ele>
        <time>2010-06-10T20:05:09Z</time>
      </trkpt>
      <trkpt lat="45.391017040237784" lon="8.812841037288308">
        <ele>113.889</ele>
        <time>2010-06-10T20:05:18Z</time>
      </trkpt>
      <trkpt lat="45.390885025262833" lon="8.812276013195515">
        <ele>113.843</ele>
        <time>2010-06-10T20:05:26Z</time>
      </trkpt>
      <trkpt lat="45.390929030254483" lon="8.812036039307714">
        <ele>114.015</ele>
        <time>2010-06-10T20:05:30Z</time>
      </trkpt>
      <trkpt lat="45.391071019694209" lon="8.811976024881005">
        <ele>114.322</ele>
        <time>2010-06-10T20:05:33Z</time>
      </trkpt>
      <trkpt lat="45.391123993322253" lon="8.811970995739102">
        <ele>114.342</ele>
        <time>2010-06-10T20:05:34Z</time>
      </trkpt>
      <trkpt lat="45.391707038506866" lon="8.811943000182509">
        <ele>114.143</ele>
        <time>2010-06-10T20:05:45Z</time>
      </trkpt>
      <trkpt lat="45.392260998487473" lon="8.811916010454297">
        <ele>114.55800000000001</ele>
        <time>2010-06-10T20:05:56Z</time>
      </trkpt>
      <trkpt lat="45.39272703230381" lon="8.811860019341111">
        <ele>114.98399999999999</ele>
        <time>2010-06-10T20:06:05Z</time>
      </trkpt>
      <trkpt lat="45.393168004229665" lon="8.811817020177841">
        <ele>115.29900000000001</ele>
        <time>2010-06-10T20:06:14Z</time>
      </trkpt>
      <trkpt lat="45.393617022782564" lon="8.811773015186191">
        <ele>115.49299999999999</ele>
        <time>2010-06-10T20:06:23Z</time>
      </trkpt>
      <trkpt lat="45.394061012193561" lon="8.811737978830934">
        <ele>115.63200000000001</ele>
        <time>2010-06-10T20:06:31Z</time>
      </trkpt>
      <trkpt lat="45.394171988591552" lon="8.811719035729766">
        <ele>115.72</ele>
        <time>2010-06-10T20:06:33Z</time>
      </trkpt>
      <trkpt lat="45.39427500218153" lon="8.811682993546128">
        <ele>115.788</ele>
        <time>2010-06-10T20:06:35Z</time>
      </trkpt>
      <trkpt lat="45.394651014357805" lon="8.811619961634278">
        <ele>115.443</ele>
        <time>2010-06-10T20:06:42Z</time>
      </trkpt>
      <trkpt lat="45.394712034612894" lon="8.811617027968168">
        <ele>115.164</ele>
        <time>2010-06-10T20:06:43Z</time>
      </trkpt>
      <trkpt lat="45.394966006278992" lon="8.811568999662995">
        <ele>115.22799999999999</ele>
        <time>2010-06-10T20:06:48Z</time>
      </trkpt>
      <trkpt lat="45.395333971828222" lon="8.811576040461659">
        <ele>115.294</ele>
        <time>2010-06-10T20:06:55Z</time>
      </trkpt>
      <trkpt lat="45.395705960690975" lon="8.811558019369841">
        <ele>115.45999999999999</ele>
        <time>2010-06-10T20:07:02Z</time>
      </trkpt>
      <trkpt lat="45.396019024774432" lon="8.811461962759495">
        <ele>115.724</ele>
        <time>2010-06-10T20:07:08Z</time>
      </trkpt>
      <trkpt lat="45.396412974223495" lon="8.811196004971862">
        <ele>115.51900000000001</ele>
        <time>2010-06-10T20:07:16Z</time>
      </trkpt>
      <trkpt lat="45.396843971684575" lon="8.810855029150844">
        <ele>115.511</ele>
        <time>2010-06-10T20:07:25Z</time>
      </trkpt>
      <trkpt lat="45.39713398553431" lon="8.810644978657365">
        <ele>115.214</ele>
        <time>2010-06-10T20:07:31Z</time>
      </trkpt>
      <trkpt lat="45.397340012714267" lon="8.810609020292759">
        <ele>115.078</ele>
        <time>2010-06-10T20:07:35Z</time>
      </trkpt>
      <trkpt lat="45.397677971050143" lon="8.810468036681414">
        <ele>115.16200000000001</ele>
        <time>2010-06-10T20:07:42Z</time>
      </trkpt>
      <trkpt lat="45.398092037066817" lon="8.810273995622993">
        <ele>115.568</ele>
        <time>2010-06-10T20:07:51Z</time>
      </trkpt>
      <trkpt lat="45.398224974051118" lon="8.810391006991267">
        <ele>115.91500000000001</ele>
        <time>2010-06-10T20:07:55Z</time>
      </trkpt>
      <trkpt lat="45.398237966001034" lon="8.810454038903117">
        <ele>116.014</ele>
        <time>2010-06-10T20:07:56Z</time>
      </trkpt>
      <trkpt lat="45.39829202927649" lon="8.8107830286026">
        <ele>116.093</ele>
        <time>2010-06-10T20:08:01Z</time>
      </trkpt>
      <trkpt lat="45.398306027054787" lon="8.811057033017278">
        <ele>116.252</ele>
        <time>2010-06-10T20:08:05Z</time>
      </trkpt>
      <trkpt lat="45.398262022063136" lon="8.811479983851314">
        <ele>116.34099999999999</ele>
        <time>2010-06-10T20:08:12Z</time>
      </trkpt>
      <trkpt lat="45.3982949629426" lon="8.811768991872668">
        <ele>116.497</ele>
        <time>2010-06-10T20:08:18Z</time>
      </trkpt>
      <trkpt lat="45.398427983745933" lon="8.812049031257629">
        <ele>116.337</ele>
        <time>2010-06-10T20:08:24Z</time>
      </trkpt>
      <trkpt lat="45.39846302010119" lon="8.812319012358785">
        <ele>116.602</ele>
        <time>2010-06-10T20:08:29Z</time>
      </trkpt>
      <trkpt lat="45.398406023159623" lon="8.81260902620852">
        <ele>116.94799999999999</ele>
        <time>2010-06-10T20:08:35Z</time>
      </trkpt>
      <trkpt lat="45.398262022063136" lon="8.81265202537179">
        <ele>116.794</ele>
        <time>2010-06-10T20:08:39Z</time>
      </trkpt>
      <trkpt lat="45.397962033748627" lon="8.812694018706679">
        <ele>116.43600000000001</ele>
        <time>2010-06-10T20:08:45Z</time>
      </trkpt>
      <trkpt lat="45.39769297465682" lon="8.812758978456259">
        <ele>116.496</ele>
        <time>2010-06-10T20:08:50Z</time>
      </trkpt>
      <trkpt lat="45.397574035450816" lon="8.812921000644565">
        <ele>116.514</ele>
        <time>2010-06-10T20:08:54Z</time>
      </trkpt>
      <trkpt lat="45.397579986602068" lon="8.813043041154742">
        <ele>116.512</ele>
        <time>2010-06-10T20:08:56Z</time>
      </trkpt>
      <trkpt lat="45.397652992978692" lon="8.813376976177096">
        <ele>116.602</ele>
        <time>2010-06-10T20:09:02Z</time>
      </trkpt>
      <trkpt lat="45.39779900573194" lon="8.813445959240198">
        <ele>116.497</ele>
        <time>2010-06-10T20:09:06Z</time>
      </trkpt>
      <trkpt lat="45.397844016551971" lon="8.813436990603805">
        <ele>116.495</ele>
        <time>2010-06-10T20:09:07Z</time>
      </trkpt>
      <trkpt lat="45.398064963519573" lon="8.813399020582438">
        <ele>116.627</ele>
        <time>2010-06-10T20:09:12Z</time>
      </trkpt>
      <trkpt lat="45.398300997912884" lon="8.813306987285614">
        <ele>116.736</ele>
        <time>2010-06-10T20:09:18Z</time>
      </trkpt>
      <trkpt lat="45.398577013984323" lon="8.813229035586119">
        <ele>116.2</ele>
        <time>2010-06-10T20:09:24Z</time>
      </trkpt>
      <trkpt lat="45.398809025064111" lon="8.813247978687286">
        <ele>116.057</ele>
        <time>2010-06-10T20:09:30Z</time>
      </trkpt>
      <trkpt lat="45.398935005068779" lon="8.813243033364415">
        <ele>115.801</ele>
        <time>2010-06-10T20:09:34Z</time>
      </trkpt>
      <trkpt lat="45.399188976734877" lon="8.813226018100977">
        <ele>114.822</ele>
        <time>2010-06-10T20:09:40Z</time>
      </trkpt>
      <trkpt lat="45.399275980889797" lon="8.813214031979442">
        <ele>114.718</ele>
        <time>2010-06-10T20:09:42Z</time>
      </trkpt>
      <trkpt lat="45.399532970041037" lon="8.813094003126025">
        <ele>114.31399999999999</ele>
        <time>2010-06-10T20:09:48Z</time>
      </trkpt>
      <trkpt lat="45.399579992517829" lon="8.813071958720684">
        <ele>114.27800000000001</ele>
        <time>2010-06-10T20:09:49Z</time>
      </trkpt>
      <trkpt lat="45.399783002212644" lon="8.812898034229875">
        <ele>113.471</ele>
        <time>2010-06-10T20:09:55Z</time>
      </trkpt>
      <trkpt lat="45.399773027747869" lon="8.812775993719697">
        <ele>110.669</ele>
        <time>2010-06-10T20:09:59Z</time>
      </trkpt>
      <trkpt lat="45.399650987237692" lon="8.812722014263272">
        <ele>107.78400000000001</ele>
        <time>2010-06-10T20:10:03Z</time>
      </trkpt>
      <trkpt lat="45.399607988074422" lon="8.812728971242905">
        <ele>107.587</ele>
        <time>2010-06-10T20:10:04Z</time>
      </trkpt>
      <trkpt lat="45.399461975321174" lon="8.812783034518361">
        <ele>107.247</ele>
        <time>2010-06-10T20:10:07Z</time>
      </trkpt>
      <trkpt lat="45.399213032796979" lon="8.812855035066605">
        <ele>108.20399999999999</ele>
        <time>2010-06-10T20:10:13Z</time>
      </trkpt>
      <trkpt lat="45.399037012830377" lon="8.812905997037888">
        <ele>109.235</ele>
        <time>2010-06-10T20:10:19Z</time>
      </trkpt>
      <trkpt lat="45.398941040039063" lon="8.812928041443229">
        <ele>110.14700000000001</ele>
        <time>2010-06-10T20:10:24Z</time>
      </trkpt>
      <trkpt lat="45.398921007290483" lon="8.812939021736383">
        <ele>110.621</ele>
        <time>2010-06-10T20:10:26Z</time>
      </trkpt>
      <trkpt lat="45.398842971771955" lon="8.812952013686299">
        <ele>111.956</ele>
        <time>2010-06-10T20:10:34Z</time>
      </trkpt>
      <trkpt lat="45.398782035335898" lon="8.812989983707666">
        <ele>113.179</ele>
        <time>2010-06-10T20:10:41Z</time>
      </trkpt>
      <trkpt lat="45.398714980110526" lon="8.812998030334711">
        <ele>114.44799999999999</ele>
        <time>2010-06-10T20:10:49Z</time>
      </trkpt>
      <trkpt lat="45.398641973733902" lon="8.813004987314344">
        <ele>115.651</ele>
        <time>2010-06-10T20:10:56Z</time>
      </trkpt>
      <trkpt lat="45.398605009540915" lon="8.812981015071273">
        <ele>116.503</ele>
        <time>2010-06-10T20:11:02Z</time>
      </trkpt>
      <trkpt lat="45.398600986227393" lon="8.81297598592937">
        <ele>116.494</ele>
        <time>2010-06-10T20:11:03Z</time>
      </trkpt>
      <trkpt lat="45.398553041741252" lon="8.812849000096321">
        <ele>116.821</ele>
        <time>2010-06-10T20:11:09Z</time>
      </trkpt>
      <trkpt lat="45.398511970415711" lon="8.812660994008184">
        <ele>117.60899999999999</ele>
        <time>2010-06-10T20:11:15Z</time>
      </trkpt>
      <trkpt lat="45.398478023707867" lon="8.812436023727059">
        <ele>117.443</ele>
        <time>2010-06-10T20:11:21Z</time>
      </trkpt>
      <trkpt lat="45.398505013436079" lon="8.812135029584169">
        <ele>117.077</ele>
        <time>2010-06-10T20:11:30Z</time>
      </trkpt>
      <trkpt lat="45.398532003164291" lon="8.812012989073992">
        <ele>116.614</ele>
        <time>2010-06-10T20:11:36Z</time>
      </trkpt>
      <trkpt lat="45.398542983457446" lon="8.811847027391195">
        <ele>113.577</ele>
        <time>2010-06-10T20:11:42Z</time>
      </trkpt>
      <trkpt lat="45.398557987064123" lon="8.811715012416244">
        <ele>110.98699999999999</ele>
        <time>2010-06-10T20:11:46Z</time>
      </trkpt>
      <trkpt lat="45.398566033691168" lon="8.811589032411575">
        <ele>109.167</ele>
        <time>2010-06-10T20:11:49Z</time>
      </trkpt>
      <trkpt lat="45.398585982620716" lon="8.811424998566508">
        <ele>107.742</ele>
        <time>2010-06-10T20:11:52Z</time>
      </trkpt>
      <trkpt lat="45.398590005934238" lon="8.811386022716761">
        <ele>107.584</ele>
        <time>2010-06-10T20:11:55Z</time>
      </trkpt>
      <trkpt lat="45.398596962913871" lon="8.811316033825278">
        <ele>107.586</ele>
        <time>2010-06-10T20:12:02Z</time>
      </trkpt>
      <trkpt lat="45.398626970127225" lon="8.811206985265017">
        <ele>107.517</ele>
        <time>2010-06-10T20:12:10Z</time>
      </trkpt>
      <trkpt lat="45.398631999269128" lon="8.811050998046994">
        <ele>108.44199999999999</ele>
        <time>2010-06-10T20:12:15Z</time>
      </trkpt>
      <trkpt lat="45.398649014532566" lon="8.810846982523799">
        <ele>108.645</ele>
        <time>2010-06-10T20:12:20Z</time>
      </trkpt>
      <trkpt lat="45.398627975955606" lon="8.810607008635998">
        <ele>109.042</ele>
        <time>2010-06-10T20:12:25Z</time>
      </trkpt>
      <trkpt lat="45.398608027026057" lon="8.810450015589595">
        <ele>109.59999999999999</ele>
        <time>2010-06-10T20:12:30Z</time>
      </trkpt>
      <trkpt lat="45.398596040904522" lon="8.810215992853046">
        <ele>110.286</ele>
        <time>2010-06-10T20:12:35Z</time>
      </trkpt>
      <trkpt lat="45.398552035912871" lon="8.810100993141532">
        <ele>112.61199999999999</ele>
        <time>2010-06-10T20:12:41Z</time>
      </trkpt>
      <trkpt lat="45.398530997335911" lon="8.810050031170249">
        <ele>113.337</ele>
        <time>2010-06-10T20:12:45Z</time>
      </trkpt>
      <trkpt lat="45.398491015657783" lon="8.810018012300134">
        <ele>114.69199999999999</ele>
        <time>2010-06-10T20:12:51Z</time>
      </trkpt>
      <trkpt lat="45.39846402592957" lon="8.809996973723173">
        <ele>115.649</ele>
        <time>2010-06-10T20:12:56Z</time>
      </trkpt>
      <trkpt lat="45.39854901842773" lon="8.809874011203647">
        <ele>115.785</ele>
        <time>2010-06-10T20:13:36Z</time>
      </trkpt>
      <trkpt lat="45.398734007030725" lon="8.809911981225014">
        <ele>115.758</ele>
        <time>2010-06-10T20:13:44Z</time>
      </trkpt>
      <trkpt lat="45.398887982591987" lon="8.809955986216664">
        <ele>115.72199999999999</ele>
        <time>2010-06-10T20:13:50Z</time>
      </trkpt>
      <trkpt lat="45.399032989516854" lon="8.809997979551554">
        <ele>115.82299999999999</ele>
        <time>2010-06-10T20:13:55Z</time>
      </trkpt>
      <trkpt lat="45.399089986458421" lon="8.810098981484771">
        <ele>116.096</ele>
        <time>2010-06-10T20:13:59Z</time>
      </trkpt>
      <trkpt lat="45.399165004491806" lon="8.810189003124833">
        <ele>115.373</ele>
        <time>2010-06-10T20:14:02Z</time>
      </trkpt>
      <trkpt lat="45.399349993094802" lon="8.810295034199953">
        <ele>115.352</ele>
        <time>2010-06-10T20:14:07Z</time>
      </trkpt>
      <trkpt lat="45.399505980312824" lon="8.810315988957882">
        <ele>115.083</ele>
        <time>2010-06-10T20:14:11Z</time>
      </trkpt>
      <trkpt lat="45.399794988334179" lon="8.810431994497776">
        <ele>115.58</ele>
        <time>2010-06-10T20:14:18Z</time>
      </trkpt>
      <trkpt lat="45.399986011907458" lon="8.810498965904117">
        <ele>116.253</ele>
        <time>2010-06-10T20:14:24Z</time>
      </trkpt>
      <trkpt lat="45.400237971916795" lon="8.810574989765883">
        <ele>116.285</ele>
        <time>2010-06-10T20:14:31Z</time>
      </trkpt>
      <trkpt lat="45.400390019640326" lon="8.81063299253583">
        <ele>116.28700000000001</ele>
        <time>2010-06-10T20:14:36Z</time>
      </trkpt>
      <trkpt lat="45.400595963001251" lon="8.810692001134157">
        <ele>116.139</ele>
        <time>2010-06-10T20:14:42Z</time>
      </trkpt>
      <trkpt lat="45.400893017649651" lon="8.81076299585402">
        <ele>115.376</ele>
        <time>2010-06-10T20:14:49Z</time>
      </trkpt>
      <trkpt lat="45.401271963492036" lon="8.810759978368878">
        <ele>115.27800000000001</ele>
        <time>2010-06-10T20:14:58Z</time>
      </trkpt>
      <trkpt lat="45.401497017592192" lon="8.81076299585402">
        <ele>115.523</ele>
        <time>2010-06-10T20:15:04Z</time>
      </trkpt>
      <trkpt lat="45.401552002876997" lon="8.810756038874388">
        <ele>115.92700000000001</ele>
        <time>2010-06-10T20:15:08Z</time>
      </trkpt>
      <trkpt lat="45.401552002876997" lon="8.810759978368878">
        <ele>116.084</ele>
        <time>2010-06-10T20:15:10Z</time>
      </trkpt>
      <trkpt lat="45.401582010090351" lon="8.810811024159193">
        <ele>116.44199999999999</ele>
        <time>2010-06-10T20:15:19Z</time>
      </trkpt>
      <trkpt lat="45.401656022295356" lon="8.810866009443998">
        <ele>115.608</ele>
        <time>2010-06-10T20:15:24Z</time>
      </trkpt>
      <trkpt lat="45.401707990095019" lon="8.810845976695418">
        <ele>116.366</ele>
        <time>2010-06-10T20:15:27Z</time>
      </trkpt>
      <trkpt lat="45.40188199840486" lon="8.81082502193749">
        <ele>116.703</ele>
        <time>2010-06-10T20:15:35Z</time>
      </trkpt>
      <trkpt lat="45.402042008936405" lon="8.810819992795587">
        <ele>116.33</ele>
        <time>2010-06-10T20:15:40Z</time>
      </trkpt>
      <trkpt lat="45.402271002531052" lon="8.810788979753852">
        <ele>116.539</ele>
        <time>2010-06-10T20:15:46Z</time>
      </trkpt>
      <trkpt lat="45.402550958096981" lon="8.810716979205608">
        <ele>116.717</ele>
        <time>2010-06-10T20:15:53Z</time>
      </trkpt>
      <trkpt lat="45.402871984988451" lon="8.810622012242675">
        <ele>116.77500000000001</ele>
        <time>2010-06-10T20:16:01Z</time>
      </trkpt>
      <trkpt lat="45.403103996068239" lon="8.810559986159205">
        <ele>116.625</ele>
        <time>2010-06-10T20:16:07Z</time>
      </trkpt>
      <trkpt lat="45.403327038511634" lon="8.810520004481077">
        <ele>116.529</ele>
        <time>2010-06-10T20:16:13Z</time>
      </trkpt>
      <trkpt lat="45.403549997135997" lon="8.810454960912466">
        <ele>116.575</ele>
        <time>2010-06-10T20:16:19Z</time>
      </trkpt>
      <trkpt lat="45.403755018487573" lon="8.810373991727829">
        <ele>116.667</ele>
        <time>2010-06-10T20:16:24Z</time>
      </trkpt>
      <trkpt lat="45.403995998203754" lon="8.810302997007966">
        <ele>116.91200000000001</ele>
        <time>2010-06-10T20:16:30Z</time>
      </trkpt>
      <trkpt lat="45.404193978756666" lon="8.81026603281498">
        <ele>117.096</ele>
        <time>2010-06-10T20:16:35Z</time>
      </trkpt>
      <trkpt lat="45.40441601537168" lon="8.81024700589478">
        <ele>117.39400000000001</ele>
        <time>2010-06-10T20:16:41Z</time>
      </trkpt>
      <trkpt lat="45.404597986489534" lon="8.810195038095117">
        <ele>117.41500000000001</ele>
        <time>2010-06-10T20:16:46Z</time>
      </trkpt>
      <trkpt lat="45.404797978699207" lon="8.810094958171248">
        <ele>117.337</ele>
        <time>2010-06-10T20:16:51Z</time>
      </trkpt>
      <trkpt lat="45.405024038627744" lon="8.810048019513488">
        <ele>117.389</ele>
        <time>2010-06-10T20:16:56Z</time>
      </trkpt>
      <trkpt lat="45.40521196089685" lon="8.809986999258399">
        <ele>117.357</ele>
        <time>2010-06-10T20:17:00Z</time>
      </trkpt>
      <trkpt lat="45.405438020825386" lon="8.809894965961576">
        <ele>117.321</ele>
        <time>2010-06-10T20:17:05Z</time>
      </trkpt>
      <trkpt lat="45.405729962512851" lon="8.809806033968926">
        <ele>117.407</ele>
        <time>2010-06-10T20:17:12Z</time>
      </trkpt>
      <trkpt lat="45.405969014391303" lon="8.809745013713837">
        <ele>117.462</ele>
        <time>2010-06-10T20:17:18Z</time>
      </trkpt>
      <trkpt lat="45.406175041571259" lon="8.809749959036708">
        <ele>117.753</ele>
        <time>2010-06-10T20:17:23Z</time>
      </trkpt>
      <trkpt lat="45.406246036291122" lon="8.809793964028359">
        <ele>117.962</ele>
        <time>2010-06-10T20:17:25Z</time>
      </trkpt>
      <trkpt lat="45.40641400963068" lon="8.809780972078443">
        <ele>117.937</ele>
        <time>2010-06-10T20:17:29Z</time>
      </trkpt>
      <trkpt lat="45.406446028500795" lon="8.809755994006991">
        <ele>117.85299999999999</ele>
        <time>2010-06-10T20:17:30Z</time>
      </trkpt>
      <trkpt lat="45.406734030693769" lon="8.80949498154223">
        <ele>117.74299999999999</ele>
        <time>2010-06-10T20:17:37Z</time>
      </trkpt>
      <trkpt lat="45.406982973217964" lon="8.809274034574628">
        <ele>117.97499999999999</ele>
        <time>2010-06-10T20:17:43Z</time>
      </trkpt>
      <trkpt lat="45.407177014276385" lon="8.809163980185986">
        <ele>117.69</ele>
        <time>2010-06-10T20:17:47Z</time>
      </trkpt>
      <trkpt lat="45.407372983172536" lon="8.808927023783326">
        <ele>117.679</ele>
        <time>2010-06-10T20:17:52Z</time>
      </trkpt>
      <trkpt lat="45.407549003139138" lon="8.808809006586671">
        <ele>117.92</ele>
        <time>2010-06-10T20:17:56Z</time>
      </trkpt>
      <trkpt lat="45.407983018085361" lon="8.808838007971644">
        <ele>117.949</ele>
        <time>2010-06-10T20:18:04Z</time>
      </trkpt>
      <trkpt lat="45.408332962542772" lon="8.808820992708206">
        <ele>118.738</ele>
        <time>2010-06-10T20:18:11Z</time>
      </trkpt>
      <trkpt lat="45.408493978902698" lon="8.808775981888175">
        <ele>119.429</ele>
        <time>2010-06-10T20:18:15Z</time>
      </trkpt>
      <trkpt lat="45.408830009400845" lon="8.80876399576664">
        <ele>119.709</ele>
        <time>2010-06-10T20:18:22Z</time>
      </trkpt>
      <trkpt lat="45.408918019384146" lon="8.808766007423401">
        <ele>119.831</ele>
        <time>2010-06-10T20:18:24Z</time>
      </trkpt>
      <trkpt lat="45.409348011016846" lon="8.80882803350687">
        <ele>119.249</ele>
        <time>2010-06-10T20:18:32Z</time>
      </trkpt>
      <trkpt lat="45.409519001841545" lon="8.808837002143264">
        <ele>119.02200000000001</ele>
        <time>2010-06-10T20:18:35Z</time>
      </trkpt>
      <trkpt lat="45.409761993214488" lon="8.808931969106197">
        <ele>119.405</ele>
        <time>2010-06-10T20:18:40Z</time>
      </trkpt>
      <trkpt lat="45.410000961273909" lon="8.809018973261118">
        <ele>119.739</ele>
        <time>2010-06-10T20:18:45Z</time>
      </trkpt>
      <trkpt lat="45.41019600816071" lon="8.809166997671127">
        <ele>118.964</ele>
        <time>2010-06-10T20:18:49Z</time>
      </trkpt>
      <trkpt lat="45.41047303006053" lon="8.809511996805668">
        <ele>118.68000000000001</ele>
        <time>2010-06-10T20:18:56Z</time>
      </trkpt>
      <trkpt lat="45.410848036408424" lon="8.809916004538536">
        <ele>119.248</ele>
        <time>2010-06-10T20:19:05Z</time>
      </trkpt>
      <trkpt lat="45.410963958129287" lon="8.810028992593288">
        <ele>119.423</ele>
        <time>2010-06-10T20:19:08Z</time>
      </trkpt>
      <trkpt lat="45.411069989204407" lon="8.81018104031682">
        <ele>119.501</ele>
        <time>2010-06-10T20:19:11Z</time>
      </trkpt>
      <trkpt lat="45.411392021924257" lon="8.810652019456029">
        <ele>119.226</ele>
        <time>2010-06-10T20:19:20Z</time>
      </trkpt>
      <trkpt lat="45.411432003602386" lon="8.810695018619299">
        <ele>119.268</ele>
        <time>2010-06-10T20:19:21Z</time>
      </trkpt>
      <trkpt lat="45.411586984992027" lon="8.81069996394217">
        <ele>119.367</ele>
        <time>2010-06-10T20:19:25Z</time>
      </trkpt>
      <trkpt lat="45.41161498054862" lon="8.810666017234325">
        <ele>119.414</ele>
        <time>2010-06-10T20:19:26Z</time>
      </trkpt>
      <trkpt lat="45.411898037418723" lon="8.810336021706462">
        <ele>119.20699999999999</ele>
        <time>2010-06-10T20:19:33Z</time>
      </trkpt>
      <trkpt lat="45.412072967737913" lon="8.81016100756824">
        <ele>119.417</ele>
        <time>2010-06-10T20:19:38Z</time>
      </trkpt>
      <trkpt lat="45.412249993532896" lon="8.810072997584939">
        <ele>119.714</ele>
        <time>2010-06-10T20:19:43Z</time>
      </trkpt>
      <trkpt lat="45.412286035716534" lon="8.810066962614656">
        <ele>119.7</ele>
        <time>2010-06-10T20:19:44Z</time>
      </trkpt>
      <trkpt lat="45.412445962429047" lon="8.810035027563572">
        <ele>119.86</ele>
        <time>2010-06-10T20:19:48Z</time>
      </trkpt>
      <trkpt lat="45.412844019010663" lon="8.809914998710156">
        <ele>120.128</ele>
        <time>2010-06-10T20:19:57Z</time>
      </trkpt>
      <trkpt lat="45.413040993735194" lon="8.809750964865089">
        <ele>120.188</ele>
        <time>2010-06-10T20:20:02Z</time>
      </trkpt>
      <trkpt lat="45.413063960149884" lon="8.809694973751903">
        <ele>120.116</ele>
        <time>2010-06-10T20:20:03Z</time>
      </trkpt>
      <trkpt lat="45.413193963468075" lon="8.809320973232389">
        <ele>120.348</ele>
        <time>2010-06-10T20:20:11Z</time>
      </trkpt>
      <trkpt lat="45.413335030898452" lon="8.808990977704525">
        <ele>120.102</ele>
        <time>2010-06-10T20:20:18Z</time>
      </trkpt>
      <trkpt lat="45.41344097815454" lon="8.808651007711887">
        <ele>120.01000000000001</ele>
        <time>2010-06-10T20:20:24Z</time>
      </trkpt>
      <trkpt lat="45.413478026166558" lon="8.808531984686852">
        <ele>119.85299999999999</ele>
        <time>2010-06-10T20:20:26Z</time>
      </trkpt>
      <trkpt lat="45.413682963699102" lon="8.808331992477179">
        <ele>119.26600000000001</ele>
        <time>2010-06-10T20:20:31Z</time>
      </trkpt>
      <trkpt lat="45.413846997544169" lon="8.808215986937285">
        <ele>119.77</ele>
        <time>2010-06-10T20:20:35Z</time>
      </trkpt>
      <trkpt lat="45.413996027782559" lon="8.807964026927948">
        <ele>120.011</ele>
        <time>2010-06-10T20:20:41Z</time>
      </trkpt>
      <trkpt lat="45.414059981703758" lon="8.807852966710925">
        <ele>120.387</ele>
        <time>2010-06-10T20:20:46Z</time>
      </trkpt>
      <trkpt lat="45.414058975875378" lon="8.807852966710925">
        <ele>120.38</ele>
        <time>2010-06-10T20:20:47Z</time>
      </trkpt>
      <trkpt lat="45.414114966988564" lon="8.807762023061514">
        <ele>120.2</ele>
        <time>2010-06-10T20:21:08Z</time>
      </trkpt>
      <trkpt lat="45.414238013327122" lon="8.807591032236815">
        <ele>120.065</ele>
        <time>2010-06-10T20:21:13Z</time>
      </trkpt>
      <trkpt lat="45.414500031620264" lon="8.80730202421546">
        <ele>120.43600000000001</ele>
        <time>2010-06-10T20:21:21Z</time>
      </trkpt>
      <trkpt lat="45.414598016068339" lon="8.807202028110623">
        <ele>120.30500000000001</ele>
        <time>2010-06-10T20:21:24Z</time>
      </trkpt>
      <trkpt lat="45.414925999939442" lon="8.806930035352707">
        <ele>120.515</ele>
        <time>2010-06-10T20:21:33Z</time>
      </trkpt>
      <trkpt lat="45.415194975212216" lon="8.806721996515989">
        <ele>120.69499999999999</ele>
        <time>2010-06-10T20:21:40Z</time>
      </trkpt>
      <trkpt lat="45.415448024868965" lon="8.806583024561405">
        <ele>120.557</ele>
        <time>2010-06-10T20:21:46Z</time>
      </trkpt>
      <trkpt lat="45.415742984041572" lon="8.806302985176444">
        <ele>119.78400000000001</ele>
        <time>2010-06-10T20:21:53Z</time>
      </trkpt>
      <trkpt lat="45.415960997343063" lon="8.806052030995488">
        <ele>120.492</ele>
        <time>2010-06-10T20:21:59Z</time>
      </trkpt>
      <trkpt lat="45.416095023974776" lon="8.805864024907351">
        <ele>120.833</ele>
        <time>2010-06-10T20:22:05Z</time>
      </trkpt>
      <trkpt lat="45.41610499843955" lon="8.805850027129054">
        <ele>121.00700000000001</ele>
        <time>2010-06-10T20:22:06Z</time>
      </trkpt>
      <trkpt lat="45.416118996217847" lon="8.805856984108686">
        <ele>121.04300000000001</ele>
        <time>2010-06-10T20:22:08Z</time>
      </trkpt>
      <trkpt lat="45.416069040074944" lon="8.805936025455594">
        <ele>120.854</ele>
        <time>2010-06-10T20:22:13Z</time>
      </trkpt>
      <trkpt lat="45.415935013443232" lon="8.806086983531714">
        <ele>120.619</ele>
        <time>2010-06-10T20:22:19Z</time>
      </trkpt>
      <trkpt lat="45.415928978472948" lon="8.80620701238513">
        <ele>120.607</ele>
        <time>2010-06-10T20:22:24Z</time>
      </trkpt>
      <trkpt lat="45.415943982079625" lon="8.806244982406497">
        <ele>119.61799999999999</ele>
        <time>2010-06-10T20:22:26Z</time>
      </trkpt>
      <trkpt lat="45.415983041748405" lon="8.806302985176444">
        <ele>117.136</ele>
        <time>2010-06-10T20:22:31Z</time>
      </trkpt>
      <trkpt lat="45.415997039526701" lon="8.806324023753405">
        <ele>116.39</ele>
        <time>2010-06-10T20:22:33Z</time>
      </trkpt>
      <trkpt lat="45.416000979021192" lon="8.806337015703321">
        <ele>115.93899999999999</ele>
        <time>2010-06-10T20:22:34Z</time>
      </trkpt>
      <trkpt lat="45.415987987071276" lon="8.806462995707989">
        <ele>112.206</ele>
        <time>2010-06-10T20:22:40Z</time>
      </trkpt>
      <trkpt lat="45.415991004556417" lon="8.806475987657905">
        <ele>111.83</ele>
        <time>2010-06-10T20:22:41Z</time>
      </trkpt>
      <trkpt lat="45.416079014539719" lon="8.806540025398135">
        <ele>109.426</ele>
        <time>2010-06-10T20:22:46Z</time>
      </trkpt>
      <trkpt lat="45.416100975126028" lon="8.806543964892626">
        <ele>109.194</ele>
        <time>2010-06-10T20:22:47Z</time>
      </trkpt>
      <trkpt lat="45.416132993996143" lon="8.806557040661573">
        <ele>108.527</ele>
        <time>2010-06-10T20:22:49Z</time>
      </trkpt>
      <trkpt lat="45.416171969845891" lon="8.806620994582772">
        <ele>108.04900000000001</ele>
        <time>2010-06-10T20:22:54Z</time>
      </trkpt>
      <trkpt lat="45.416172975674272" lon="8.806754015386105">
        <ele>107.584</ele>
        <time>2010-06-10T20:23:44Z</time>
      </trkpt>
      <trkpt lat="45.416193008422852" lon="8.806847976520658">
        <ele>106.98099999999999</ele>
        <time>2010-06-10T20:23:49Z</time>
      </trkpt>
      <trkpt lat="45.416251011192799" lon="8.806984014809132">
        <ele>106.259</ele>
        <time>2010-06-10T20:23:53Z</time>
      </trkpt>
      <trkpt lat="45.416326029226184" lon="8.807102032005787">
        <ele>105.601</ele>
        <time>2010-06-10T20:23:58Z</time>
      </trkpt>
      <trkpt lat="45.41638302616775" lon="8.807180989533663">
        <ele>105.03100000000001</ele>
        <time>2010-06-10T20:24:02Z</time>
      </trkpt>
      <trkpt lat="45.4164909850806" lon="8.807290038093925">
        <ele>104.36499999999999</ele>
        <time>2010-06-10T20:24:09Z</time>
      </trkpt>
      <trkpt lat="45.416545970365405" lon="8.807351980358362">
        <ele>104.133</ele>
        <time>2010-06-10T20:24:15Z</time>
      </trkpt>
      <trkpt lat="45.41655502282083" lon="8.8073689956218">
        <ele>104.10599999999999</ele>
        <time>2010-06-10T20:24:17Z</time>
      </trkpt>
      <trkpt lat="45.416566003113985" lon="8.807446025311947">
        <ele>104.126</ele>
        <time>2010-06-10T20:24:44Z</time>
      </trkpt>
      <trkpt lat="45.416599027812481" lon="8.807469997555018">
        <ele>103.996</ele>
        <time>2010-06-10T20:24:52Z</time>
      </trkpt>
      <trkpt lat="45.416712015867233" lon="8.807551972568035">
        <ele>103.84699999999999</ele>
        <time>2010-06-10T20:24:57Z</time>
      </trkpt>
      <trkpt lat="45.41674898006022" lon="8.807580973953009">
        <ele>103.81399999999999</ele>
        <time>2010-06-10T20:24:58Z</time>
      </trkpt>
      <trkpt lat="45.41698501445353" lon="8.807809967547655">
        <ele>103.35299999999999</ele>
        <time>2010-06-10T20:25:05Z</time>
      </trkpt>
      <trkpt lat="45.417088028043509" lon="8.807976013049483">
        <ele>103.554</ele>
        <time>2010-06-10T20:25:09Z</time>
      </trkpt>
      <trkpt lat="45.417196992784739" lon="8.808210035786033">
        <ele>103.77500000000001</ele>
        <time>2010-06-10T20:25:14Z</time>
      </trkpt>
      <trkpt lat="45.417244015261531" lon="8.808315983042121">
        <ele>103.86499999999999</ele>
        <time>2010-06-10T20:25:16Z</time>
      </trkpt>
      <trkpt lat="45.417306041345" lon="8.808487979695201">
        <ele>104.021</ele>
        <time>2010-06-10T20:25:19Z</time>
      </trkpt>
      <trkpt lat="45.417388016358018" lon="8.808670034632087">
        <ele>103.995</ele>
        <time>2010-06-10T20:25:22Z</time>
      </trkpt>
      <trkpt lat="45.417567975819111" lon="8.808929035440087">
        <ele>104.11199999999999</ele>
        <time>2010-06-10T20:25:27Z</time>
      </trkpt>
      <trkpt lat="45.41786796413362" lon="8.809316027909517">
        <ele>104.113</ele>
        <time>2010-06-10T20:25:35Z</time>
      </trkpt>
      <trkpt lat="45.418109027668834" lon="8.809659015387297">
        <ele>104.03</ele>
        <time>2010-06-10T20:25:42Z</time>
      </trkpt>
      <trkpt lat="45.418386971578002" lon="8.810037961229682">
        <ele>103.801</ele>
        <time>2010-06-10T20:25:50Z</time>
      </trkpt>
      <trkpt lat="45.418602973222733" lon="8.810347001999617">
        <ele>103.61</ele>
        <time>2010-06-10T20:25:56Z</time>
      </trkpt>
      <trkpt lat="45.418698024004698" lon="8.810709016397595">
        <ele>103.393</ele>
        <time>2010-06-10T20:26:01Z</time>
      </trkpt>
      <trkpt lat="45.418692994862795" lon="8.810785040259361">
        <ele>103.374</ele>
        <time>2010-06-10T20:26:02Z</time>
      </trkpt>
      <trkpt lat="45.418602973222733" lon="8.811351992189884">
        <ele>103.771</ele>
        <time>2010-06-10T20:26:10Z</time>
      </trkpt>
      <trkpt lat="45.418566009029746" lon="8.811864964663982">
        <ele>104.01000000000001</ele>
        <time>2010-06-10T20:26:17Z</time>
      </trkpt>
      <trkpt lat="45.418551005423069" lon="8.812157995998859">
        <ele>104.229</ele>
        <time>2010-06-10T20:26:21Z</time>
      </trkpt>
      <trkpt lat="45.418458972126245" lon="8.812597962096334">
        <ele>105.003</ele>
        <time>2010-06-10T20:26:28Z</time>
      </trkpt>
      <trkpt lat="45.418479004874825" lon="8.812806000933051">
        <ele>105.663</ele>
        <time>2010-06-10T20:26:33Z</time>
      </trkpt>
      <trkpt lat="45.418487973511219" lon="8.812965005636215">
        <ele>105.331</ele>
        <time>2010-06-10T20:26:37Z</time>
      </trkpt>
      <trkpt lat="45.418436005711555" lon="8.813206991180778">
        <ele>104.384</ele>
        <time>2010-06-10T20:26:41Z</time>
      </trkpt>
      <trkpt lat="45.418254034593701" lon="8.813589038327336">
        <ele>103.542</ele>
        <time>2010-06-10T20:26:47Z</time>
      </trkpt>
      <trkpt lat="45.418149009346962" lon="8.813949963077903">
        <ele>103.145</ele>
        <time>2010-06-10T20:26:52Z</time>
      </trkpt>
      <trkpt lat="45.41805999353528" lon="8.814317006617785">
        <ele>102.76300000000001</ele>
        <time>2010-06-10T20:26:58Z</time>
      </trkpt>
      <trkpt lat="45.417975001037121" lon="8.814308037981391">
        <ele>102.539</ele>
        <time>2010-06-10T20:27:01Z</time>
      </trkpt>
      <trkpt lat="45.417947005480528" lon="8.81426596082747">
        <ele>102.429</ele>
        <time>2010-06-10T20:27:02Z</time>
      </trkpt>
      <trkpt lat="45.41769496165216" lon="8.813905036076903">
        <ele>101.831</ele>
        <time>2010-06-10T20:27:09Z</time>
      </trkpt>
      <trkpt lat="45.417497986927629" lon="8.813844015821815">
        <ele>102.011</ele>
        <time>2010-06-10T20:27:13Z</time>
      </trkpt>
      <trkpt lat="45.41730796918273" lon="8.813846027478576">
        <ele>101.994</ele>
        <time>2010-06-10T20:27:16Z</time>
      </trkpt>
      <trkpt lat="45.417077969759703" lon="8.813831023871899">
        <ele>101.98099999999999</ele>
        <time>2010-06-10T20:27:20Z</time>
      </trkpt>
      <trkpt lat="45.416918965056539" lon="8.81383596919477">
        <ele>101.846</ele>
        <time>2010-06-10T20:27:23Z</time>
      </trkpt>
      <trkpt lat="45.416631968691945" lon="8.813955998048186">
        <ele>101.98</ele>
        <time>2010-06-10T20:27:29Z</time>
      </trkpt>
      <trkpt lat="45.416315970942378" lon="8.814241988584399">
        <ele>101.765</ele>
        <time>2010-06-10T20:27:36Z</time>
      </trkpt>
      <trkpt lat="45.416027968749404" lon="8.814461007714272">
        <ele>101.83</ele>
        <time>2010-06-10T20:27:42Z</time>
      </trkpt>
      <trkpt lat="45.41582403704524" lon="8.814648007974029">
        <ele>102.04600000000001</ele>
        <time>2010-06-10T20:27:47Z</time>
      </trkpt>
      <trkpt lat="45.415606023743749" lon="8.81484498269856">
        <ele>101.937</ele>
        <time>2010-06-10T20:27:53Z</time>
      </trkpt>
      <trkpt lat="45.415491024032235" lon="8.814998036250472">
        <ele>101.751</ele>
        <time>2010-06-10T20:27:57Z</time>
      </trkpt>
      <trkpt lat="45.415276028215885" lon="8.815386034548283">
        <ele>101.58</ele>
        <time>2010-06-10T20:28:04Z</time>
      </trkpt>
      <trkpt lat="45.415118029341102" lon="8.815691974014044">
        <ele>101.459</ele>
        <time>2010-06-10T20:28:10Z</time>
      </trkpt>
      <trkpt lat="45.415046028792858" lon="8.815881991758943">
        <ele>101.333</ele>
        <time>2010-06-10T20:28:13Z</time>
      </trkpt>
      <trkpt lat="45.414952989667654" lon="8.816116014495492">
        <ele>101.53100000000001</ele>
        <time>2010-06-10T20:28:17Z</time>
      </trkpt>
      <trkpt lat="45.414828015491366" lon="8.816382978111506">
        <ele>100.20399999999999</ele>
        <time>2010-06-10T20:28:22Z</time>
      </trkpt>
      <trkpt lat="45.414631962776184" lon="8.816578024998307">
        <ele>100.788</ele>
        <time>2010-06-10T20:28:27Z</time>
      </trkpt>
      <trkpt lat="45.414561973884702" lon="8.816614989191294">
        <ele>101.849</ele>
        <time>2010-06-10T20:28:29Z</time>
      </trkpt>
      <trkpt lat="45.414284029975533" lon="8.816853035241365">
        <ele>102.437</ele>
        <time>2010-06-10T20:28:36Z</time>
      </trkpt>
      <trkpt lat="45.414056964218616" lon="8.817075993865728">
        <ele>102.202</ele>
        <time>2010-06-10T20:28:41Z</time>
      </trkpt>
      <trkpt lat="45.413942970335484" lon="8.817261988297105">
        <ele>101.96599999999999</ele>
        <time>2010-06-10T20:28:45Z</time>
      </trkpt>
      <trkpt lat="45.413856972008944" lon="8.817625008523464">
        <ele>101.492</ele>
        <time>2010-06-10T20:28:51Z</time>
      </trkpt>
      <trkpt lat="45.413768962025642" lon="8.817780995741487">
        <ele>101.616</ele>
        <time>2010-06-10T20:28:54Z</time>
      </trkpt>
      <trkpt lat="45.413608029484749" lon="8.818062040954828">
        <ele>101.631</ele>
        <time>2010-06-10T20:28:59Z</time>
      </trkpt>
      <trkpt lat="45.413517002016306" lon="8.818309977650642">
        <ele>101.571</ele>
        <time>2010-06-10T20:29:03Z</time>
      </trkpt>
      <trkpt lat="45.413367971777916" lon="8.818384995684028">
        <ele>101.387</ele>
        <time>2010-06-10T20:29:07Z</time>
      </trkpt>
      <trkpt lat="45.413173008710146" lon="8.818419026210904">
        <ele>100.511</ele>
        <time>2010-06-10T20:29:11Z</time>
      </trkpt>
      <trkpt lat="45.413084998726845" lon="8.818464959040284">
        <ele>100.866</ele>
        <time>2010-06-10T20:29:13Z</time>
      </trkpt>
      <trkpt lat="45.412994977086782" lon="8.818485997617245">
        <ele>101.142</ele>
        <time>2010-06-10T20:29:15Z</time>
      </trkpt>
      <trkpt lat="45.412790961563587" lon="8.818648019805551">
        <ele>100.905</ele>
        <time>2010-06-10T20:29:20Z</time>
      </trkpt>
      <trkpt lat="45.412705969065428" lon="8.818704010918737">
        <ele>100.76300000000001</ele>
        <time>2010-06-10T20:29:22Z</time>
      </trkpt>
      <trkpt lat="45.41251502931118" lon="8.818791015073657">
        <ele>100.399</ele>
        <time>2010-06-10T20:29:27Z</time>
      </trkpt>
      <trkpt lat="45.412488039582968" lon="8.818801995366812">
        <ele>100.392</ele>
        <time>2010-06-10T20:29:28Z</time>
      </trkpt>
      <trkpt lat="45.412281006574631" lon="8.818842982873321">
        <ele>100.855</ele>
        <time>2010-06-10T20:29:35Z</time>
      </trkpt>
      <trkpt lat="45.412180004641414" lon="8.818899979814887">
        <ele>100.627</ele>
        <time>2010-06-10T20:29:39Z</time>
      </trkpt>
      <trkpt lat="45.412105992436409" lon="8.818944990634918">
        <ele>100.66200000000001</ele>
        <time>2010-06-10T20:29:43Z</time>
      </trkpt>
      <trkpt lat="45.412003984674811" lon="8.819027971476317">
        <ele>100.749</ele>
        <time>2010-06-10T20:29:48Z</time>
      </trkpt>
      <trkpt lat="45.411889990791678" lon="8.819070970639586">
        <ele>100.607</ele>
        <time>2010-06-10T20:29:52Z</time>
      </trkpt>
      <trkpt lat="45.411855960264802" lon="8.819097960367799">
        <ele>100.589</ele>
        <time>2010-06-10T20:29:53Z</time>
      </trkpt>
      <trkpt lat="45.411714976653457" lon="8.819215977564454">
        <ele>101.074</ele>
        <time>2010-06-10T20:29:58Z</time>
      </trkpt>
      <trkpt lat="45.411576004698873" lon="8.819350004196167">
        <ele>101.042</ele>
        <time>2010-06-10T20:30:02Z</time>
      </trkpt>
      <trkpt lat="45.411435021087527" lon="8.819470033049583">
        <ele>100.44799999999999</ele>
        <time>2010-06-10T20:30:06Z</time>
      </trkpt>
      <trkpt lat="45.411216001957655" lon="8.819668013602495">
        <ele>100.77500000000001</ele>
        <time>2010-06-10T20:30:12Z</time>
      </trkpt>
      <trkpt lat="45.411102008074522" lon="8.819799022749066">
        <ele>100.887</ele>
        <time>2010-06-10T20:30:17Z</time>
      </trkpt>
      <trkpt lat="45.410977033898234" lon="8.819972025230527">
        <ele>100.49299999999999</ele>
        <time>2010-06-10T20:30:21Z</time>
      </trkpt>
      <trkpt lat="45.410874020308256" lon="8.820139998570085">
        <ele>100.72499999999999</ele>
        <time>2010-06-10T20:30:25Z</time>
      </trkpt>
      <trkpt lat="45.410719960927963" lon="8.820292968302965">
        <ele>100.895</ele>
        <time>2010-06-10T20:30:31Z</time>
      </trkpt>
      <trkpt lat="45.410677967593074" lon="8.820358011871576">
        <ele>100.755</ele>
        <time>2010-06-10T20:30:33Z</time>
      </trkpt>
      <trkpt lat="45.410616025328636" lon="8.820569990202785">
        <ele>100.309</ele>
        <time>2010-06-10T20:30:38Z</time>
      </trkpt>
      <trkpt lat="45.410617031157017" lon="8.820607960224152">
        <ele>100.352</ele>
        <time>2010-06-10T20:30:39Z</time>
      </trkpt>
      <trkpt lat="45.410532960668206" lon="8.820834020152688">
        <ele>100.93000000000001</ele>
        <time>2010-06-10T20:30:45Z</time>
      </trkpt>
      <trkpt lat="45.41051703505218" lon="8.820874001830816">
        <ele>101.021</ele>
        <time>2010-06-10T20:30:48Z</time>
      </trkpt>
      <trkpt lat="45.410501025617123" lon="8.82092596963048">
        <ele>101.017</ele>
        <time>2010-06-10T20:30:55Z</time>
      </trkpt>
      <trkpt lat="45.410486022010446" lon="8.820984978228807">
        <ele>100.893</ele>
        <time>2010-06-10T20:31:01Z</time>
      </trkpt>
      <trkpt lat="45.410418966785073" lon="8.82114197127521">
        <ele>101.004</ele>
        <time>2010-06-10T20:31:07Z</time>
      </trkpt>
      <trkpt lat="45.410275971516967" lon="8.821299970149994">
        <ele>100.937</ele>
        <time>2010-06-10T20:31:12Z</time>
      </trkpt>
      <trkpt lat="45.41013297624886" lon="8.821410024538636">
        <ele>100.871</ele>
        <time>2010-06-10T20:31:17Z</time>
      </trkpt>
      <trkpt lat="45.409992998465896" lon="8.821510020643473">
        <ele>100.874</ele>
        <time>2010-06-10T20:31:23Z</time>
      </trkpt>
      <trkpt lat="45.40974598377943" lon="8.821695009246469">
        <ele>101.04300000000001</ele>
        <time>2010-06-10T20:31:31Z</time>
      </trkpt>
      <trkpt lat="45.409479020163417" lon="8.821899024769664">
        <ele>100.908</ele>
        <time>2010-06-10T20:31:38Z</time>
      </trkpt>
      <trkpt lat="45.409399978816509" lon="8.821946969255805">
        <ele>100.88800000000001</ele>
        <time>2010-06-10T20:31:40Z</time>
      </trkpt>
      <trkpt lat="45.409085992723703" lon="8.822217034175992">
        <ele>100.736</ele>
        <time>2010-06-10T20:31:48Z</time>
      </trkpt>
      <trkpt lat="45.409007035195827" lon="8.822288028895855">
        <ele>100.666</ele>
        <time>2010-06-10T20:31:50Z</time>
      </trkpt>
      <trkpt lat="45.408879965543747" lon="8.822464970871806">
        <ele>100.66</ele>
        <time>2010-06-10T20:31:54Z</time>
      </trkpt>
      <trkpt lat="45.408738981932402" lon="8.822705028578639">
        <ele>100.512</ele>
        <time>2010-06-10T20:31:59Z</time>
      </trkpt>
      <trkpt lat="45.408601015806198" lon="8.822845006361604">
        <ele>100.092</ele>
        <time>2010-06-10T20:32:03Z</time>
      </trkpt>
      <trkpt lat="45.408324999734759" lon="8.823224036023021">
        <ele>99.810000000000002</ele>
        <time>2010-06-10T20:32:10Z</time>
      </trkpt>
      <trkpt lat="45.408102041110396" lon="8.823595019057393">
        <ele>99.891000000000005</ele>
        <time>2010-06-10T20:32:16Z</time>
      </trkpt>
      <trkpt lat="45.408029034733772" lon="8.823708007112145">
        <ele>100.023</ele>
        <time>2010-06-10T20:32:18Z</time>
      </trkpt>
      <trkpt lat="45.407914035022259" lon="8.824017969891429">
        <ele>99.891000000000005</ele>
        <time>2010-06-10T20:32:23Z</time>
      </trkpt>
      <trkpt lat="45.407874975353479" lon="8.824094999581575">
        <ele>100.352</ele>
        <time>2010-06-10T20:32:25Z</time>
      </trkpt>
      <trkpt lat="45.407768022269011" lon="8.824245035648346">
        <ele>100.393</ele>
        <time>2010-06-10T20:32:29Z</time>
      </trkpt>
      <trkpt lat="45.407614968717098" lon="8.824402028694749">
        <ele>100.06399999999999</ele>
        <time>2010-06-10T20:32:33Z</time>
      </trkpt>
      <trkpt lat="45.407374994829297" lon="8.824676033109427">
        <ele>99.814999999999998</ele>
        <time>2010-06-10T20:32:39Z</time>
      </trkpt>
      <trkpt lat="45.407319003716111" lon="8.824757002294064">
        <ele>99.739999999999995</ele>
        <time>2010-06-10T20:32:41Z</time>
      </trkpt>
      <trkpt lat="45.407186988741159" lon="8.824949031695724">
        <ele>99.622</ele>
        <time>2010-06-10T20:32:45Z</time>
      </trkpt>
      <trkpt lat="45.407033013179898" lon="8.825046010315418">
        <ele>99.644000000000005</ele>
        <time>2010-06-10T20:32:49Z</time>
      </trkpt>
      <trkpt lat="45.406991019845009" lon="8.825040981173515">
        <ele>99.614999999999995</ele>
        <time>2010-06-10T20:32:50Z</time>
      </trkpt>
      <trkpt lat="45.406722966581583" lon="8.825031006708741">
        <ele>99.721000000000004</ele>
        <time>2010-06-10T20:32:57Z</time>
      </trkpt>
      <trkpt lat="45.406634034588933" lon="8.825062019750476">
        <ele>99.647000000000006</ele>
        <time>2010-06-10T20:33:01Z</time>
      </trkpt>
      <trkpt lat="45.406491961330175" lon="8.825053973123431">
        <ele>99.447999999999993</ele>
        <time>2010-06-10T20:33:06Z</time>
      </trkpt>
      <trkpt lat="45.406410992145538" lon="8.82504902780056">
        <ele>99.400000000000006</ele>
        <time>2010-06-10T20:33:08Z</time>
      </trkpt>
      <trkpt lat="45.406321976333857" lon="8.825047016143799">
        <ele>99.236000000000004</ele>
        <time>2010-06-10T20:33:10Z</time>
      </trkpt>
      <trkpt lat="45.406232960522175" lon="8.825055984780192">
        <ele>99.286000000000001</ele>
        <time>2010-06-10T20:33:12Z</time>
      </trkpt>
      <trkpt lat="45.406093988567591" lon="8.825100995600224">
        <ele>99.308000000000007</ele>
        <time>2010-06-10T20:33:15Z</time>
      </trkpt>
      <trkpt lat="45.405953004956245" lon="8.825187999755144">
        <ele>99.340000000000003</ele>
        <time>2010-06-10T20:33:19Z</time>
      </trkpt>
      <trkpt lat="45.405804980546236" lon="8.825256982818246">
        <ele>99.230999999999995</ele>
        <time>2010-06-10T20:33:23Z</time>
      </trkpt>
      <trkpt lat="45.405624015256763" lon="8.825394026935101">
        <ele>99.087000000000003</ele>
        <time>2010-06-10T20:33:28Z</time>
      </trkpt>
      <trkpt lat="45.40553298778832" lon="8.825500980019569">
        <ele>98.766000000000005</ele>
        <time>2010-06-10T20:33:32Z</time>
      </trkpt>
      <trkpt lat="45.405417988076806" lon="8.825593013316393">
        <ele>98.843000000000004</ele>
        <time>2010-06-10T20:33:37Z</time>
      </trkpt>
      <trkpt lat="45.4053820297122" lon="8.825627965852618">
        <ele>98.816000000000003</ele>
        <time>2010-06-10T20:33:38Z</time>
      </trkpt>
      <trkpt lat="45.405239034444094" lon="8.825885038822889">
        <ele>98.497</ele>
        <time>2010-06-10T20:33:43Z</time>
      </trkpt>
      <trkpt lat="45.405076006427407" lon="8.826240012422204">
        <ele>98.694000000000003</ele>
        <time>2010-06-10T20:33:50Z</time>
      </trkpt>
      <trkpt lat="45.404981961473823" lon="8.826442016288638">
        <ele>98.555000000000007</ele>
        <time>2010-06-10T20:33:56Z</time>
      </trkpt>
      <trkpt lat="45.404879031702876" lon="8.826662041246891">
        <ele>98.441999999999993</ele>
        <time>2010-06-10T20:34:02Z</time>
      </trkpt>
      <trkpt lat="45.404725978150964" lon="8.826953982934356">
        <ele>98.412999999999997</ele>
        <time>2010-06-10T20:34:09Z</time>
      </trkpt>
      <trkpt lat="45.404606033116579" lon="8.827180964872241">
        <ele>99.091999999999999</ele>
        <time>2010-06-10T20:34:15Z</time>
      </trkpt>
      <trkpt lat="45.404579965397716" lon="8.827239973470569">
        <ele>100.065</ele>
        <time>2010-06-10T20:34:18Z</time>
      </trkpt>
      <trkpt lat="45.404576025903225" lon="8.82724198512733">
        <ele>100.107</ele>
        <time>2010-06-10T20:34:19Z</time>
      </trkpt>
      <trkpt lat="45.404521962627769" lon="8.827213989570737">
        <ele>100.13</ele>
        <time>2010-06-10T20:34:24Z</time>
      </trkpt>
      <trkpt lat="45.404519028961658" lon="8.827181970700622">
        <ele>100.129</ele>
        <time>2010-06-10T20:34:25Z</time>
      </trkpt>
      <trkpt lat="45.404504025354981" lon="8.826906038448215">
        <ele>100.126</ele>
        <time>2010-06-10T20:34:32Z</time>
      </trkpt>
      <trkpt lat="45.404491033405066" lon="8.826674027368426">
        <ele>100.22199999999999</ele>
        <time>2010-06-10T20:34:37Z</time>
      </trkpt>
      <trkpt lat="45.404457002878189" lon="8.826336991041899">
        <ele>100.033</ele>
        <time>2010-06-10T20:34:43Z</time>
      </trkpt>
      <trkpt lat="45.404446022585034" lon="8.826245041564107">
        <ele>100.127</ele>
        <time>2010-06-10T20:34:45Z</time>
      </trkpt>
      <trkpt lat="45.404346026480198" lon="8.826217968016863">
        <ele>100.464</ele>
        <time>2010-06-10T20:34:49Z</time>
      </trkpt>
      <trkpt lat="45.404088031500578" lon="8.826365992426872">
        <ele>100.712</ele>
        <time>2010-06-10T20:34:57Z</time>
      </trkpt>
      <trkpt lat="45.40394201874733" lon="8.826557016000152">
        <ele>100.599</ele>
        <time>2010-06-10T20:35:02Z</time>
      </trkpt>
      <trkpt lat="45.403753006830812" lon="8.826939985156059">
        <ele>100.605</ele>
        <time>2010-06-10T20:35:10Z</time>
      </trkpt>
      <trkpt lat="45.403576986864209" lon="8.827286995947361">
        <ele>100.935</ele>
        <time>2010-06-10T20:35:18Z</time>
      </trkpt>
      <trkpt lat="45.403412031009793" lon="8.827599976211786">
        <ele>100.66800000000001</ele>
        <time>2010-06-10T20:35:24Z</time>
      </trkpt>
      <trkpt lat="45.40321497246623" lon="8.827975988388062">
        <ele>100.571</ele>
        <time>2010-06-10T20:35:31Z</time>
      </trkpt>
      <trkpt lat="45.402993019670248" lon="8.828526008874178">
        <ele>100.303</ele>
        <time>2010-06-10T20:35:41Z</time>
      </trkpt>
      <trkpt lat="45.402863016352057" lon="8.828905960544944">
        <ele>100.16800000000001</ele>
        <time>2010-06-10T20:35:48Z</time>
      </trkpt>
      <trkpt lat="45.402813982218504" lon="8.829150963574648">
        <ele>100.21899999999999</ele>
        <time>2010-06-10T20:35:52Z</time>
      </trkpt>
      <trkpt lat="45.402824962511659" lon="8.829707019031048">
        <ele>100.21599999999999</ele>
        <time>2010-06-10T20:36:00Z</time>
      </trkpt>
      <trkpt lat="45.402843989431858" lon="8.829918997362256">
        <ele>100.223</ele>
        <time>2010-06-10T20:36:03Z</time>
      </trkpt>
      <trkpt lat="45.40287097916007" lon="8.830345971509814">
        <ele>100.214</ele>
        <time>2010-06-10T20:36:10Z</time>
      </trkpt>
      <trkpt lat="45.40291397832334" lon="8.830772023648024">
        <ele>100.393</ele>
        <time>2010-06-10T20:36:17Z</time>
      </trkpt>
      <trkpt lat="45.402939962223172" lon="8.830921975895762">
        <ele>100.48099999999999</ele>
        <time>2010-06-10T20:36:20Z</time>
      </trkpt>
      <trkpt lat="45.402964018285275" lon="8.831402007490397">
        <ele>100.509</ele>
        <time>2010-06-10T20:36:27Z</time>
      </trkpt>
      <trkpt lat="45.402995031327009" lon="8.831879021599889">
        <ele>100.276</ele>
        <time>2010-06-10T20:36:34Z</time>
      </trkpt>
      <trkpt lat="45.403006011620164" lon="8.832014976069331">
        <ele>100.261</ele>
        <time>2010-06-10T20:36:36Z</time>
      </trkpt>
      <trkpt lat="45.403034007176757" lon="8.832554016262293">
        <ele>100.22199999999999</ele>
        <time>2010-06-10T20:36:44Z</time>
      </trkpt>
      <trkpt lat="45.403044987469912" lon="8.832687959074974">
        <ele>100.26600000000001</ele>
        <time>2010-06-10T20:36:46Z</time>
      </trkpt>
      <trkpt lat="45.403060996904969" lon="8.833002028986812">
        <ele>100.34999999999999</ele>
        <time>2010-06-10T20:36:51Z</time>
      </trkpt>
      <trkpt lat="45.403092009946704" lon="8.833403019234538">
        <ele>100.289</ele>
        <time>2010-06-10T20:36:57Z</time>
      </trkpt>
      <trkpt lat="45.403129979968071" lon="8.833795040845871">
        <ele>100.25</ele>
        <time>2010-06-10T20:37:03Z</time>
      </trkpt>
      <trkpt lat="45.40312604047358" lon="8.834312036633492">
        <ele>99.775999999999996</ele>
        <time>2010-06-10T20:37:12Z</time>
      </trkpt>
      <trkpt lat="45.403145989403129" lon="8.834779998287559">
        <ele>99.873999999999995</ele>
        <time>2010-06-10T20:37:20Z</time>
      </trkpt>
      <trkpt lat="45.403156969696283" lon="8.834892986342311">
        <ele>99.713999999999999</ele>
        <time>2010-06-10T20:37:22Z</time>
      </trkpt>
      <trkpt lat="45.403108019381762" lon="8.835185011848807">
        <ele>99.513000000000005</ele>
        <time>2010-06-10T20:37:27Z</time>
      </trkpt>
      <trkpt lat="45.403079017996788" lon="8.835239997133613">
        <ele>99.331000000000003</ele>
        <time>2010-06-10T20:37:28Z</time>
      </trkpt>
      <trkpt lat="45.402816999703646" lon="8.835709970444441">
        <ele>99.468999999999994</ele>
        <time>2010-06-10T20:37:37Z</time>
      </trkpt>
      <trkpt lat="45.402746004983783" lon="8.835996966809034">
        <ele>99.506</ele>
        <time>2010-06-10T20:37:42Z</time>
      </trkpt>
      <trkpt lat="45.402650032192469" lon="8.836311958730221">
        <ele>99.177000000000007</ele>
        <time>2010-06-10T20:37:47Z</time>
      </trkpt>
      <trkpt lat="45.402493039146066" lon="8.836596021428704">
        <ele>99.103999999999999</ele>
        <time>2010-06-10T20:37:52Z</time>
      </trkpt>
      <trkpt lat="45.402283994480968" lon="8.83703900501132">
        <ele>99.103999999999999</ele>
        <time>2010-06-10T20:37:59Z</time>
      </trkpt>
      <trkpt lat="45.402129013091326" lon="8.837409988045692">
        <ele>98.932000000000002</ele>
        <time>2010-06-10T20:38:05Z</time>
      </trkpt>
      <trkpt lat="45.401934972032905" lon="8.837885996326804">
        <ele>98.932000000000002</ele>
        <time>2010-06-10T20:38:12Z</time>
      </trkpt>
      <trkpt lat="45.401809997856617" lon="8.838214986026287">
        <ele>98.593999999999994</ele>
        <time>2010-06-10T20:38:17Z</time>
      </trkpt>
      <trkpt lat="45.401662979274988" lon="8.838584963232279">
        <ele>98.281000000000006</ele>
        <time>2010-06-10T20:38:23Z</time>
      </trkpt>
      <trkpt lat="45.401615034788847" lon="8.838699962943792">
        <ele>98.334999999999994</ele>
        <time>2010-06-10T20:38:25Z</time>
      </trkpt>
      <trkpt lat="45.401462987065315" lon="8.838927028700709">
        <ele>98.162000000000006</ele>
        <time>2010-06-10T20:38:29Z</time>
      </trkpt>
      <trkpt lat="45.401164004579186" lon="8.839164990931749">
        <ele>97.932000000000002</ele>
        <time>2010-06-10T20:38:36Z</time>
      </trkpt>
      <trkpt lat="45.401041964069009" lon="8.839242020621896">
        <ele>97.991</ele>
        <time>2010-06-10T20:38:39Z</time>
      </trkpt>
      <trkpt lat="45.400900980457664" lon="8.83933799341321">
        <ele>97.771000000000001</ele>
        <time>2010-06-10T20:38:42Z</time>
      </trkpt>
      <trkpt lat="45.400523962453008" lon="8.839473025873303">
        <ele>97.939999999999998</ele>
        <time>2010-06-10T20:38:49Z</time>
      </trkpt>
      <trkpt lat="45.400364035740495" lon="8.839546032249928">
        <ele>97.841999999999999</ele>
        <time>2010-06-10T20:38:52Z</time>
      </trkpt>
      <trkpt lat="45.400078967213631" lon="8.839818025007844">
        <ele>97.760999999999996</ele>
        <time>2010-06-10T20:38:58Z</time>
      </trkpt>
      <trkpt lat="45.400014007464051" lon="8.839887008070946">
        <ele>97.728999999999999</ele>
        <time>2010-06-10T20:39:00Z</time>
      </trkpt>
      <trkpt lat="45.399909988045692" lon="8.839848032221198">
        <ele>97.382000000000005</ele>
        <time>2010-06-10T20:39:04Z</time>
      </trkpt>
      <trkpt lat="45.399896996095777" lon="8.839796986430883">
        <ele>97.293999999999997</ele>
        <time>2010-06-10T20:39:05Z</time>
      </trkpt>
      <trkpt lat="45.399807980284095" lon="8.839375963434577">
        <ele>97.082999999999998</ele>
        <time>2010-06-10T20:39:12Z</time>
      </trkpt>
      <trkpt lat="45.399716030806303" lon="8.839044040068984">
        <ele>96.787000000000006</ele>
        <time>2010-06-10T20:39:18Z</time>
      </trkpt>
      <trkpt lat="45.399659033864737" lon="8.838918982073665">
        <ele>96.415000000000006</ele>
        <time>2010-06-10T20:39:20Z</time>
      </trkpt>
      <trkpt lat="45.399483013898134" lon="8.838741034269333">
        <ele>95.567999999999998</ele>
        <time>2010-06-10T20:39:24Z</time>
      </trkpt>
      <trkpt lat="45.399312023073435" lon="8.838739022612572">
        <ele>95.123000000000005</ele>
        <time>2010-06-10T20:39:27Z</time>
      </trkpt>
      <trkpt lat="45.399053022265434" lon="8.838632991537452">
        <ele>96.381</ele>
        <time>2010-06-10T20:39:32Z</time>
      </trkpt>
      <trkpt lat="45.39885001257062" lon="8.838307019323111">
        <ele>97.757999999999996</ele>
        <time>2010-06-10T20:39:38Z</time>
      </trkpt>
      <trkpt lat="45.398750016465783" lon="8.838153965771198">
        <ele>98.105999999999995</ele>
        <time>2010-06-10T20:39:41Z</time>
      </trkpt>
      <trkpt lat="45.398684972897172" lon="8.837981969118118">
        <ele>98.537000000000006</ele>
        <time>2010-06-10T20:39:44Z</time>
      </trkpt>
      <trkpt lat="45.398669969290495" lon="8.837674017995596">
        <ele>98.953999999999994</ele>
        <time>2010-06-10T20:39:49Z</time>
      </trkpt>
      <trkpt lat="45.39861498400569" lon="8.837205972522497">
        <ele>99.260000000000005</ele>
        <time>2010-06-10T20:39:56Z</time>
      </trkpt>
      <trkpt lat="45.398472994565964" lon="8.836581017822027">
        <ele>99.733999999999995</ele>
        <time>2010-06-10T20:40:05Z</time>
      </trkpt>
      <trkpt lat="45.39835698902607" lon="8.836073996499181">
        <ele>99.795000000000002</ele>
        <time>2010-06-10T20:40:12Z</time>
      </trkpt>
      <trkpt lat="45.398303009569645" lon="8.835722962394357">
        <ele>99.626000000000005</ele>
        <time>2010-06-10T20:40:16Z</time>
      </trkpt>
      <trkpt lat="45.398187004029751" lon="8.835087027400732">
        <ele>99.543999999999997</ele>
        <time>2010-06-10T20:40:24Z</time>
      </trkpt>
      <trkpt lat="45.398156996816397" lon="8.834944032132626">
        <ele>99.655000000000001</ele>
        <time>2010-06-10T20:40:26Z</time>
      </trkpt>
      <trkpt lat="45.39803696796298" lon="8.834427036345005">
        <ele>99.608999999999995</ele>
        <time>2010-06-10T20:40:32Z</time>
      </trkpt>
      <trkpt lat="45.397958010435104" lon="8.833920015022159">
        <ele>99.069000000000003</ele>
        <time>2010-06-10T20:40:37Z</time>
      </trkpt>
      <trkpt lat="45.397931020706892" lon="8.833316015079618">
        <ele>97.963999999999999</ele>
        <time>2010-06-10T20:40:43Z</time>
      </trkpt>
      <trkpt lat="45.39788500405848" lon="8.832843024283648">
        <ele>97.682000000000002</ele>
        <time>2010-06-10T20:40:48Z</time>
      </trkpt>
      <trkpt lat="45.397831024602056" lon="8.832153026014566">
        <ele>97.495000000000005</ele>
        <time>2010-06-10T20:40:54Z</time>
      </trkpt>
      <trkpt lat="45.397782996296883" lon="8.83162303827703">
        <ele>97.427000000000007</ele>
        <time>2010-06-10T20:40:59Z</time>
      </trkpt>
      <trkpt lat="45.397772016003728" lon="8.831264041364193">
        <ele>97.599999999999994</ele>
        <time>2010-06-10T20:41:03Z</time>
      </trkpt>
      <trkpt lat="45.397719964385033" lon="8.831011997535825">
        <ele>97.346000000000004</ele>
        <time>2010-06-10T20:41:07Z</time>
      </trkpt>
      <trkpt lat="45.397599013522267" lon="8.830982996150851">
        <ele>96.903000000000006</ele>
        <time>2010-06-10T20:41:10Z</time>
      </trkpt>
      <trkpt lat="45.397512009367347" lon="8.830981990322471">
        <ele>96.640000000000001</ele>
        <time>2010-06-10T20:41:12Z</time>
      </trkpt>
      <trkpt lat="45.397149994969368" lon="8.831016020849347">
        <ele>96.430999999999997</ele>
        <time>2010-06-10T20:41:20Z</time>
      </trkpt>
      <trkpt lat="45.396759985014796" lon="8.831056002527475">
        <ele>96.319000000000003</ele>
        <time>2010-06-10T20:41:28Z</time>
      </trkpt>
      <trkpt lat="45.396458990871906" lon="8.831082992255688">
        <ele>96.290999999999997</ele>
        <time>2010-06-10T20:41:33Z</time>
      </trkpt>
      <trkpt lat="45.396334016695619" lon="8.831095984205604">
        <ele>96.325000000000003</ele>
        <time>2010-06-10T20:41:35Z</time>
      </trkpt>
      <trkpt lat="45.396219016984105" lon="8.830975033342838">
        <ele>96.741</ele>
        <time>2010-06-10T20:41:39Z</time>
      </trkpt>
      <trkpt lat="45.396090019494295" lon="8.83061402477324">
        <ele>96.292000000000002</ele>
        <time>2010-06-10T20:41:45Z</time>
      </trkpt>
      <trkpt lat="45.395861025899649" lon="8.83007699623704">
        <ele>96.340999999999994</ele>
        <time>2010-06-10T20:41:53Z</time>
      </trkpt>
      <trkpt lat="45.395575035363436" lon="8.82945204153657">
        <ele>96.299999999999997</ele>
        <time>2010-06-10T20:42:02Z</time>
      </trkpt>
      <trkpt lat="45.395282004028559" lon="8.828774029389024">
        <ele>96.438999999999993</ele>
        <time>2010-06-10T20:42:12Z</time>
      </trkpt>
      <trkpt lat="45.395083017647266" lon="8.828332973644137">
        <ele>96.424999999999997</ele>
        <time>2010-06-10T20:42:19Z</time>
      </trkpt>
      <trkpt lat="45.394861986860633" lon="8.827850008383393">
        <ele>96.867000000000004</ele>
        <time>2010-06-10T20:42:27Z</time>
      </trkpt>
      <trkpt lat="45.39477095939219" lon="8.82764901034534">
        <ele>97.591999999999999</ele>
        <time>2010-06-10T20:42:32Z</time>
      </trkpt>
      <trkpt lat="45.39472796022892" lon="8.827554965391755">
        <ele>97.515000000000001</ele>
        <time>2010-06-10T20:42:38Z</time>
      </trkpt>
      <trkpt lat="45.394644979387522" lon="8.827355979010463">
        <ele>97.483000000000004</ele>
        <time>2010-06-10T20:42:46Z</time>
      </trkpt>
      <trkpt lat="45.394548000767827" lon="8.827208038419485">
        <ele>97.185000000000002</ele>
        <time>2010-06-10T20:42:52Z</time>
      </trkpt>
      <trkpt lat="45.394488992169499" lon="8.82694199681282">
        <ele>97.087000000000003</ele>
        <time>2010-06-10T20:42:58Z</time>
      </trkpt>
      <trkpt lat="45.394408022984862" lon="8.826562967151403">
        <ele>96.698999999999998</ele>
        <time>2010-06-10T20:43:04Z</time>
      </trkpt>
      <trkpt lat="45.394308026880026" lon="8.826127024367452">
        <ele>96.394000000000005</ele>
        <time>2010-06-10T20:43:10Z</time>
      </trkpt>
      <trkpt lat="45.394235020503402" lon="8.82580297999084">
        <ele>96.340000000000003</ele>
        <time>2010-06-10T20:43:14Z</time>
      </trkpt>
      <trkpt lat="45.394091019406915" lon="8.825599970296025">
        <ele>96.269999999999996</ele>
        <time>2010-06-10T20:43:18Z</time>
      </trkpt>
      <trkpt lat="45.393984988331795" lon="8.825614973902702">
        <ele>96.561000000000007</ele>
        <time>2010-06-10T20:43:20Z</time>
      </trkpt>
      <trkpt lat="45.393578968942165" lon="8.825764004141092">
        <ele>96.057000000000002</ele>
        <time>2010-06-10T20:43:26Z</time>
      </trkpt>
      <trkpt lat="45.39300799369812" lon="8.825970031321049">
        <ele>96.426000000000002</ele>
        <time>2010-06-10T20:43:34Z</time>
      </trkpt>
      <trkpt lat="45.392527962103486" lon="8.826155019924045">
        <ele>96.269000000000005</ele>
        <time>2010-06-10T20:43:41Z</time>
      </trkpt>
      <trkpt lat="45.392089001834393" lon="8.826416032388806">
        <ele>96.200999999999993</ele>
        <time>2010-06-10T20:43:47Z</time>
      </trkpt>
      <trkpt lat="45.391698991879821" lon="8.826649971306324">
        <ele>95.712999999999994</ele>
        <time>2010-06-10T20:43:52Z</time>
      </trkpt>
      <trkpt lat="45.391264976933599" lon="8.82691802456975">
        <ele>95.873999999999995</ele>
        <time>2010-06-10T20:43:58Z</time>
      </trkpt>
      <trkpt lat="45.390762984752655" lon="8.827223964035511">
        <ele>95.022999999999996</ele>
        <time>2010-06-10T20:44:06Z</time>
      </trkpt>
      <trkpt lat="45.390375992283225" lon="8.827468967065215">
        <ele>94.908000000000001</ele>
        <time>2010-06-10T20:44:13Z</time>
      </trkpt>
      <trkpt lat="45.390269961208105" lon="8.827531998977065">
        <ele>94.915999999999997</ele>
        <time>2010-06-10T20:44:15Z</time>
      </trkpt>
      <trkpt lat="45.390168959274888" lon="8.82760601118207">
        <ele>94.882000000000005</ele>
        <time>2010-06-10T20:44:17Z</time>
      </trkpt>
      <trkpt lat="45.389961004257202" lon="8.827859982848167">
        <ele>94.769999999999996</ele>
        <time>2010-06-10T20:44:22Z</time>
      </trkpt>
      <trkpt lat="45.389795964583755" lon="8.828030973672867">
        <ele>94.918999999999997</ele>
        <time>2010-06-10T20:44:27Z</time>
      </trkpt>
      <trkpt lat="45.389738967642188" lon="8.827995015308261">
        <ele>95.036000000000001</ele>
        <time>2010-06-10T20:44:29Z</time>
      </trkpt>
      <trkpt lat="45.389621034264565" lon="8.827944975346327">
        <ele>95.721999999999994</ele>
        <time>2010-06-10T20:44:35Z</time>
      </trkpt>
      <trkpt lat="45.389608964323997" lon="8.827943969517946">
        <ele>95.956000000000003</ele>
        <time>2010-06-10T20:44:36Z</time>
      </trkpt>
      <trkpt lat="45.389567976817489" lon="8.827940030023456">
        <ele>96.173000000000002</ele>
        <time>2010-06-10T20:44:41Z</time>
      </trkpt>
      <trkpt lat="45.389568982645869" lon="8.827940030023456">
        <ele>96.162000000000006</ele>
        <time>2010-06-10T20:44:42Z</time>
      </trkpt>
      <trkpt lat="45.389497987926006" lon="8.82814597338438">
        <ele>96.131</ele>
        <time>2010-06-10T20:45:22Z</time>
      </trkpt>
      <trkpt lat="45.38933495990932" lon="8.828291986137629">
        <ele>96.247</ele>
        <time>2010-06-10T20:45:28Z</time>
      </trkpt>
      <trkpt lat="45.389297995716333" lon="8.828327022492886">
        <ele>96.227999999999994</ele>
        <time>2010-06-10T20:45:29Z</time>
      </trkpt>
      <trkpt lat="45.389072019606829" lon="8.82855299860239">
        <ele>95.876000000000005</ele>
        <time>2010-06-10T20:45:35Z</time>
      </trkpt>
      <trkpt lat="45.388913014903665" lon="8.828675039112568">
        <ele>95.734999999999999</ele>
        <time>2010-06-10T20:45:39Z</time>
      </trkpt>
      <trkpt lat="45.388586958870292" lon="8.82887402549386">
        <ele>95.647000000000006</ele>
        <time>2010-06-10T20:45:47Z</time>
      </trkpt>
      <trkpt lat="45.388350002467632" lon="8.829063959419727">
        <ele>95.373000000000005</ele>
        <time>2010-06-10T20:45:53Z</time>
      </trkpt>
      <trkpt lat="45.388031993061304" lon="8.829237967729569">
        <ele>95.263999999999996</ele>
        <time>2010-06-10T20:46:00Z</time>
      </trkpt>
      <trkpt lat="45.387778021395206" lon="8.82936998270452">
        <ele>95.099000000000004</ele>
        <time>2010-06-10T20:46:05Z</time>
      </trkpt>
      <trkpt lat="45.387588003650308" lon="8.829509038478136">
        <ele>95.037000000000006</ele>
        <time>2010-06-10T20:46:09Z</time>
      </trkpt>
      <trkpt lat="45.387436961755157" lon="8.829739959910512">
        <ele>94.751999999999995</ele>
        <time>2010-06-10T20:46:13Z</time>
      </trkpt>
      <trkpt lat="45.387376025319099" lon="8.82988303899765">
        <ele>94.728999999999999</ele>
        <time>2010-06-10T20:46:15Z</time>
      </trkpt>
      <trkpt lat="45.387134961783886" lon="8.830117983743548">
        <ele>94.218999999999994</ele>
        <time>2010-06-10T20:46:20Z</time>
      </trkpt>
      <trkpt lat="45.386775964871049" lon="8.830286962911487">
        <ele>94.277000000000001</ele>
        <time>2010-06-10T20:46:27Z</time>
      </trkpt>
      <trkpt lat="45.386545965448022" lon="8.830386959016323">
        <ele>94.247</ele>
        <time>2010-06-10T20:46:32Z</time>
      </trkpt>
      <trkpt lat="45.386176994070411" lon="8.830670015886426">
        <ele>94.326999999999998</ele>
        <time>2010-06-10T20:46:40Z</time>
      </trkpt>
      <trkpt lat="45.385882034897804" lon="8.830873025581241">
        <ele>94.277000000000001</ele>
        <time>2010-06-10T20:46:46Z</time>
      </trkpt>
      <trkpt lat="45.385665027424693" lon="8.830993976444006">
        <ele>94.052999999999997</ele>
        <time>2010-06-10T20:46:50Z</time>
      </trkpt>
      <trkpt lat="45.385613981634378" lon="8.83102398365736">
        <ele>94.049999999999997</ele>
        <time>2010-06-10T20:46:51Z</time>
      </trkpt>
      <trkpt lat="45.385449025779963" lon="8.831229005008936">
        <ele>94.471999999999994</ele>
        <time>2010-06-10T20:46:55Z</time>
      </trkpt>
      <trkpt lat="45.385180972516537" lon="8.831773996353149">
        <ele>95.167000000000002</ele>
        <time>2010-06-10T20:47:04Z</time>
      </trkpt>
      <trkpt lat="45.385095980018377" lon="8.831978011876345">
        <ele>95.424999999999997</ele>
        <time>2010-06-10T20:47:07Z</time>
      </trkpt>
      <trkpt lat="45.384850976988673" lon="8.832534989342094">
        <ele>94.478999999999999</ele>
        <time>2010-06-10T20:47:15Z</time>
      </trkpt>
      <trkpt lat="45.384737988933921" lon="8.832740010693669">
        <ele>94.019999999999996</ele>
        <time>2010-06-10T20:47:18Z</time>
      </trkpt>
      <trkpt lat="45.384384021162987" lon="8.833089033141732">
        <ele>93.546999999999997</ele>
        <time>2010-06-10T20:47:25Z</time>
      </trkpt>
      <trkpt lat="45.384070035070181" lon="8.833447024226189">
        <ele>93.358000000000004</ele>
        <time>2010-06-10T20:47:32Z</time>
      </trkpt>
      <trkpt lat="45.383988982066512" lon="8.833565041422844">
        <ele>93.385000000000005</ele>
        <time>2010-06-10T20:47:34Z</time>
      </trkpt>
      <trkpt lat="45.383707014843822" lon="8.834064016118646">
        <ele>93.878</ele>
        <time>2010-06-10T20:47:42Z</time>
      </trkpt>
      <trkpt lat="45.383498976007104" lon="8.83452502079308">
        <ele>94.043999999999997</ele>
        <time>2010-06-10T20:47:49Z</time>
      </trkpt>
      <trkpt lat="45.383285991847515" lon="8.835017960518599">
        <ele>93.444000000000003</ele>
        <time>2010-06-10T20:47:56Z</time>
      </trkpt>
      <trkpt lat="45.383178032934666" lon="8.835230022668839">
        <ele>93.033000000000001</ele>
        <time>2010-06-10T20:47:59Z</time>
      </trkpt>
      <trkpt lat="45.382963037118316" lon="8.835399001836777">
        <ele>92.881</ele>
        <time>2010-06-10T20:48:03Z</time>
      </trkpt>
      <trkpt lat="45.382547965273261" lon="8.835477959364653">
        <ele>92.635000000000005</ele>
        <time>2010-06-10T20:48:10Z</time>
      </trkpt>
      <trkpt lat="45.382052008062601" lon="8.835582984611392">
        <ele>92.795000000000002</ele>
        <time>2010-06-10T20:48:19Z</time>
      </trkpt>
      <trkpt lat="45.381712038069963" lon="8.835639981552959">
        <ele>92.75</ele>
        <time>2010-06-10T20:48:26Z</time>
      </trkpt>
      <trkpt lat="45.381626039743423" lon="8.835649034008384">
        <ele>92.613</ele>
        <time>2010-06-10T20:48:28Z</time>
      </trkpt>
      <trkpt lat="45.381323033943772" lon="8.835650039836764">
        <ele>92.343999999999994</ele>
        <time>2010-06-10T20:48:36Z</time>
      </trkpt>
      <trkpt lat="45.381113989278674" lon="8.835650039836764">
        <ele>92.278000000000006</ele>
        <time>2010-06-10T20:48:42Z</time>
      </trkpt>
      <trkpt lat="45.380968982353806" lon="8.83555599488318">
        <ele>92.030000000000001</ele>
        <time>2010-06-10T20:48:47Z</time>
      </trkpt>
      <trkpt lat="45.380800003185868" lon="8.835435966029763">
        <ele>92.078000000000003</ele>
        <time>2010-06-10T20:48:52Z</time>
      </trkpt>
      <trkpt lat="45.380495991557837" lon="8.835391039028764">
        <ele>91.822999999999993</ele>
        <time>2010-06-10T20:48:59Z</time>
      </trkpt>
      <trkpt lat="45.38015996105969" lon="8.835380980744958">
        <ele>91.498000000000005</ele>
        <time>2010-06-10T20:49:06Z</time>
      </trkpt>
      <trkpt lat="45.379789983853698" lon="8.835376035422087">
        <ele>91.491</ele>
        <time>2010-06-10T20:49:14Z</time>
      </trkpt>
      <trkpt lat="45.379391005262733" lon="8.835370000451803">
        <ele>90.924999999999997</ele>
        <time>2010-06-10T20:49:22Z</time>
      </trkpt>
      <trkpt lat="45.378983980044723" lon="8.83527897298336">
        <ele>90.778999999999996</ele>
        <time>2010-06-10T20:49:30Z</time>
      </trkpt>
      <trkpt lat="45.378885995596647" lon="8.835230022668839">
        <ele>90.611999999999995</ele>
        <time>2010-06-10T20:49:32Z</time>
      </trkpt>
      <trkpt lat="45.37876496091485" lon="8.835054002702236">
        <ele>90.290000000000006</ele>
        <time>2010-06-10T20:49:36Z</time>
      </trkpt>
      <trkpt lat="45.378751968964934" lon="8.835006980225444">
        <ele>90.281000000000006</ele>
        <time>2010-06-10T20:49:37Z</time>
      </trkpt>
      <trkpt lat="45.378707963973284" lon="8.834760971367359">
        <ele>90.512</ele>
        <time>2010-06-10T20:49:43Z</time>
      </trkpt>
      <trkpt lat="45.378689020872116" lon="8.834634991362691">
        <ele>90.769000000000005</ele>
        <time>2010-06-10T20:49:47Z</time>
      </trkpt>
      <trkpt lat="45.378680974245071" lon="8.8345049880445">
        <ele>90.875</ele>
        <time>2010-06-10T20:49:52Z</time>
      </trkpt>
      <trkpt lat="45.378649039193988" lon="8.834303990006447">
        <ele>91.171999999999997</ele>
        <time>2010-06-10T20:49:58Z</time>
      </trkpt>
      <trkpt lat="45.378607967868447" lon="8.83401095867157">
        <ele>91.293999999999997</ele>
        <time>2010-06-10T20:50:04Z</time>
      </trkpt>
      <trkpt lat="45.378552982583642" lon="8.833714993670583">
        <ele>91.944000000000003</ele>
        <time>2010-06-10T20:50:10Z</time>
      </trkpt>
      <trkpt lat="45.378471007570624" lon="8.833273015916348">
        <ele>92.144999999999996</ele>
        <time>2010-06-10T20:50:18Z</time>
      </trkpt>
      <trkpt lat="45.378350978717208" lon="8.832610007375479">
        <ele>92.546999999999997</ele>
        <time>2010-06-10T20:50:29Z</time>
      </trkpt>
      <trkpt lat="45.378233967348933" lon="8.831914979964495">
        <ele>93.227000000000004</ele>
        <time>2010-06-10T20:50:40Z</time>
      </trkpt>
      <trkpt lat="45.37809600122273" lon="8.831137977540493">
        <ele>93.570999999999998</ele>
        <time>2010-06-10T20:50:52Z</time>
      </trkpt>
      <trkpt lat="45.377993993461132" lon="8.830545963719487">
        <ele>93.944999999999993</ele>
        <time>2010-06-10T20:51:01Z</time>
      </trkpt>
      <trkpt lat="45.377919981256127" lon="8.830068027600646">
        <ele>95.513000000000005</ele>
        <time>2010-06-10T20:51:09Z</time>
      </trkpt>
      <trkpt lat="45.377840017899871" lon="8.829739037901163">
        <ele>97.421999999999997</ele>
        <time>2010-06-10T20:51:16Z</time>
      </trkpt>
      <trkpt lat="45.377754019573331" lon="8.829486994072795">
        <ele>99.370000000000005</ele>
        <time>2010-06-10T20:51:22Z</time>
      </trkpt>
      <trkpt lat="45.377683024853468" lon="8.829265963286161">
        <ele>100.872</ele>
        <time>2010-06-10T20:51:27Z</time>
      </trkpt>
      <trkpt lat="45.377594009041786" lon="8.829059014096856">
        <ele>101.867</ele>
        <time>2010-06-10T20:51:32Z</time>
      </trkpt>
      <trkpt lat="45.377432992681861" lon="8.828977039083839">
        <ele>102.541</ele>
        <time>2010-06-10T20:51:37Z</time>
      </trkpt>
      <trkpt lat="45.377274993807077" lon="8.828977039083839">
        <ele>103.863</ele>
        <time>2010-06-10T20:51:42Z</time>
      </trkpt>
      <trkpt lat="45.377070978283882" lon="8.828954994678497">
        <ele>105.367</ele>
        <time>2010-06-10T20:51:48Z</time>
      </trkpt>
      <trkpt lat="45.376898981630802" lon="8.82879096083343">
        <ele>106.395</ele>
        <time>2010-06-10T20:51:54Z</time>
      </trkpt>
      <trkpt lat="45.37672002799809" lon="8.82852902635932">
        <ele>107.45399999999999</ele>
        <time>2010-06-10T20:52:01Z</time>
      </trkpt>
      <trkpt lat="45.37650897167623" lon="8.828238006681204">
        <ele>108.212</ele>
        <time>2010-06-10T20:52:09Z</time>
      </trkpt>
      <trkpt lat="45.376301016658545" lon="8.827985040843487">
        <ele>108.456</ele>
        <time>2010-06-10T20:52:17Z</time>
      </trkpt>
      <trkpt lat="45.376043021678925" lon="8.82767298258841">
        <ele>108.339</ele>
        <time>2010-06-10T20:52:26Z</time>
      </trkpt>
      <trkpt lat="45.375723000615835" lon="8.827308034524322">
        <ele>108.282</ele>
        <time>2010-06-10T20:52:36Z</time>
      </trkpt>
      <trkpt lat="45.375467017292976" lon="8.827076023444533">
        <ele>108.419</ele>
        <time>2010-06-10T20:52:44Z</time>
      </trkpt>
      <trkpt lat="45.375211033970118" lon="8.826852981001139">
        <ele>108.58499999999999</ele>
        <time>2010-06-10T20:52:52Z</time>
      </trkpt>
      <trkpt lat="45.374895958229899" lon="8.826591968536377">
        <ele>108.88500000000001</ele>
        <time>2010-06-10T20:53:01Z</time>
      </trkpt>
      <trkpt lat="45.374610973522067" lon="8.826451990753412">
        <ele>109.07899999999999</ele>
        <time>2010-06-10T20:53:09Z</time>
      </trkpt>
      <trkpt lat="45.374480970203876" lon="8.826607977971435">
        <ele>109.34</ele>
        <time>2010-06-10T20:53:15Z</time>
      </trkpt>
      <trkpt lat="45.374279972165823" lon="8.826807970181108">
        <ele>109.202</ele>
        <time>2010-06-10T20:53:22Z</time>
      </trkpt>
      <trkpt lat="45.373988030478358" lon="8.827111981809139">
        <ele>109.23099999999999</ele>
        <time>2010-06-10T20:53:31Z</time>
      </trkpt>
      <trkpt lat="45.373587040230632" lon="8.827504003420472">
        <ele>108.738</ele>
        <time>2010-06-10T20:53:42Z</time>
      </trkpt>
      <trkpt lat="45.373223014175892" lon="8.827867023646832">
        <ele>108.69</ele>
        <time>2010-06-10T20:53:52Z</time>
      </trkpt>
      <trkpt lat="45.372777013108134" lon="8.828319981694222">
        <ele>108.92100000000001</ele>
        <time>2010-06-10T20:54:04Z</time>
      </trkpt>
      <trkpt lat="45.372741976752877" lon="8.82836096920073">
        <ele>109.017</ele>
        <time>2010-06-10T20:54:05Z</time>
      </trkpt>
      <trkpt lat="45.372651033103466" lon="8.828640002757311">
        <ele>109.011</ele>
        <time>2010-06-10T20:54:10Z</time>
      </trkpt>
      <trkpt lat="45.372652960941195" lon="8.828717032447457">
        <ele>109.063</ele>
        <time>2010-06-10T20:54:13Z</time>
      </trkpt>
      <trkpt lat="45.372654972597957" lon="8.828719966113567">
        <ele>109.04600000000001</ele>
        <time>2010-06-10T20:54:15Z</time>
      </trkpt>
      <trkpt lat="45.372713981196284" lon="8.828872013837099">
        <ele>108.91200000000001</ele>
        <time>2010-06-10T20:54:22Z</time>
      </trkpt>
      <trkpt lat="45.372843984514475" lon="8.829362019896507">
        <ele>108.824</ele>
        <time>2010-06-10T20:54:32Z</time>
      </trkpt>
      <trkpt lat="45.372953033074737" lon="8.82979603484273">
        <ele>108.163</ele>
        <time>2010-06-10T20:54:39Z</time>
      </trkpt>
      <trkpt lat="45.373117988929152" lon="8.830490978434682">
        <ele>106.886</ele>
        <time>2010-06-10T20:54:49Z</time>
      </trkpt>
      <trkpt lat="45.373297026380897" lon="8.83074302226305">
        <ele>105.411</ele>
        <time>2010-06-10T20:54:54Z</time>
      </trkpt>
      <trkpt lat="45.373451001942158" lon="8.830735981464386">
        <ele>104.123</ele>
        <time>2010-06-10T20:54:57Z</time>
      </trkpt>
      <trkpt lat="45.373601038008928" lon="8.830694993957877">
        <ele>102.482</ele>
        <time>2010-06-10T20:55:01Z</time>
      </trkpt>
      <trkpt lat="45.373659962788224" lon="8.830832038074732">
        <ele>101.31699999999999</ele>
        <time>2010-06-10T20:55:04Z</time>
      </trkpt>
      <trkpt lat="45.373687036335468" lon="8.830925999209285">
        <ele>100.746</ele>
        <time>2010-06-10T20:55:06Z</time>
      </trkpt>
      <trkpt lat="45.373828019946814" lon="8.831018032506108">
        <ele>98.997</ele>
        <time>2010-06-10T20:55:11Z</time>
      </trkpt>
      <trkpt lat="45.373866995796561" lon="8.831003028899431">
        <ele>98.561999999999998</ele>
        <time>2010-06-10T20:55:12Z</time>
      </trkpt>
      <trkpt lat="45.373976966366172" lon="8.830933040007949">
        <ele>97.272000000000006</ele>
        <time>2010-06-10T20:55:15Z</time>
      </trkpt>
      <trkpt lat="45.374013008549809" lon="8.83091401308775">
        <ele>96.893000000000001</ele>
        <time>2010-06-10T20:55:16Z</time>
      </trkpt>
      <trkpt lat="45.374142006039619" lon="8.831047033891082">
        <ele>95.489999999999995</ele>
        <time>2010-06-10T20:55:21Z</time>
      </trkpt>
      <trkpt lat="45.374110992997885" lon="8.831163039430976">
        <ele>94.820999999999998</ele>
        <time>2010-06-10T20:55:23Z</time>
      </trkpt>
      <trkpt lat="45.374020971357822" lon="8.831436960026622">
        <ele>93.631</ele>
        <time>2010-06-10T20:55:27Z</time>
      </trkpt>
      <trkpt lat="45.373975038528442" lon="8.831576015800238">
        <ele>93.271000000000001</ele>
        <time>2010-06-10T20:55:29Z</time>
      </trkpt>
      <trkpt lat="45.373945031315088" lon="8.831944987177849">
        <ele>93.905000000000001</ele>
        <time>2010-06-10T20:55:34Z</time>
      </trkpt>
      <trkpt lat="45.373826008290052" lon="8.832135004922748">
        <ele>92.831999999999994</ele>
        <time>2010-06-10T20:55:37Z</time>
      </trkpt>
      <trkpt lat="45.373769011348486" lon="8.832183033227921">
        <ele>92.599999999999994</ele>
        <time>2010-06-10T20:55:38Z</time>
      </trkpt>
      <trkpt lat="45.373592991381884" lon="8.83233399130404">
        <ele>91.278999999999996</ele>
        <time>2010-06-10T20:55:41Z</time>
      </trkpt>
      <trkpt lat="45.373521996662021" lon="8.832572037354112">
        <ele>90.840000000000003</ele>
        <time>2010-06-10T20:55:45Z</time>
      </trkpt>
      <trkpt lat="45.373609000816941" lon="8.832816034555435">
        <ele>90.637</ele>
        <time>2010-06-10T20:55:49Z</time>
      </trkpt>
      <trkpt lat="45.373587962239981" lon="8.832919970154762">
        <ele>90.501999999999995</ele>
        <time>2010-06-10T20:55:51Z</time>
      </trkpt>
      <trkpt lat="45.373320998623967" lon="8.833320960402489">
        <ele>90.055000000000007</ele>
        <time>2010-06-10T20:55:59Z</time>
      </trkpt>
      <trkpt lat="45.373098039999604" lon="8.833713987842202">
        <ele>90.5</ele>
        <time>2010-06-10T20:56:06Z</time>
      </trkpt>
      <trkpt lat="45.373092005029321" lon="8.833940969780088">
        <ele>90.989000000000004</ele>
        <time>2010-06-10T20:56:10Z</time>
      </trkpt>
      <trkpt lat="45.37311103194952" lon="8.834000984206796">
        <ele>91.001999999999995</ele>
        <time>2010-06-10T20:56:11Z</time>
      </trkpt>
      <trkpt lat="45.373254027217627" lon="8.834539018571377">
        <ele>90.649000000000001</ele>
        <time>2010-06-10T20:56:19Z</time>
      </trkpt>
      <trkpt lat="45.373226031661034" lon="8.834839006885886">
        <ele>90.498000000000005</ele>
        <time>2010-06-10T20:56:23Z</time>
      </trkpt>
      <trkpt lat="45.373038025572896" lon="8.835306968539953">
        <ele>90.302999999999997</ele>
        <time>2010-06-10T20:56:31Z</time>
      </trkpt>
      <trkpt lat="45.373017992824316" lon="8.83536203764379">
        <ele>90.320999999999998</ele>
        <time>2010-06-10T20:56:32Z</time>
      </trkpt>
      <trkpt lat="45.372869968414307" lon="8.835509978234768">
        <ele>89.989999999999995</ele>
        <time>2010-06-10T20:56:36Z</time>
      </trkpt>
      <trkpt lat="45.372393038123846" lon="8.835757998749614">
        <ele>89.364000000000004</ele>
        <time>2010-06-10T20:56:46Z</time>
      </trkpt>
      <trkpt lat="45.372014008462429" lon="8.836009036749601">
        <ele>89.284000000000006</ele>
        <time>2010-06-10T20:56:54Z</time>
      </trkpt>
      <trkpt lat="45.371703961864114" lon="8.836309025064111">
        <ele>89.123000000000005</ele>
        <time>2010-06-10T20:57:01Z</time>
      </trkpt>
      <trkpt lat="45.371431969106197" lon="8.836668021976948">
        <ele>88.640000000000001</ele>
        <time>2010-06-10T20:57:08Z</time>
      </trkpt>
      <trkpt lat="45.371257960796356" lon="8.83697496727109">
        <ele>88.518000000000001</ele>
        <time>2010-06-10T20:57:13Z</time>
      </trkpt>
      <trkpt lat="45.371185960248113" lon="8.837245032191277">
        <ele>88.552000000000007</ele>
        <time>2010-06-10T20:57:17Z</time>
      </trkpt>
      <trkpt lat="45.371195012703538" lon="8.837548037990928">
        <ele>88.191999999999993</ele>
        <time>2010-06-10T20:57:21Z</time>
      </trkpt>
      <trkpt lat="45.371087975800037" lon="8.837767979130149">
        <ele>88.140000000000001</ele>
        <time>2010-06-10T20:57:25Z</time>
      </trkpt>
      <trkpt lat="45.370839033275843" lon="8.837938969954848">
        <ele>88.129000000000005</ele>
        <time>2010-06-10T20:57:30Z</time>
      </trkpt>
      <trkpt lat="45.370591012760997" lon="8.838244993239641">
        <ele>88.063000000000002</ele>
        <time>2010-06-10T20:57:36Z</time>
      </trkpt>
      <trkpt lat="45.370395965874195" lon="8.838388994336128">
        <ele>88.087999999999994</ele>
        <time>2010-06-10T20:57:40Z</time>
      </trkpt>
      <trkpt lat="45.370290018618107" lon="8.838427970185876">
        <ele>87.944000000000003</ele>
        <time>2010-06-10T20:57:42Z</time>
      </trkpt>
      <trkpt lat="45.369903026148677" lon="8.838604995980859">
        <ele>87.805999999999997</ele>
        <time>2010-06-10T20:57:50Z</time>
      </trkpt>
      <trkpt lat="45.3693319670856" lon="8.838877994567156">
        <ele>87.640000000000001</ele>
        <time>2010-06-10T20:58:01Z</time>
      </trkpt>
      <trkpt lat="45.369183020666242" lon="8.838946977630258">
        <ele>87.623000000000005</ele>
        <time>2010-06-10T20:58:04Z</time>
      </trkpt>
      <trkpt lat="45.368975987657905" lon="8.838975979015231">
        <ele>87.435000000000002</ele>
        <time>2010-06-10T20:58:08Z</time>
      </trkpt>
      <trkpt lat="45.368709024041891" lon="8.839084021747112">
        <ele>87.531000000000006</ele>
        <time>2010-06-10T20:58:13Z</time>
      </trkpt>
      <trkpt lat="45.368567034602165" lon="8.839218970388174">
        <ele>87.551000000000002</ele>
        <time>2010-06-10T20:58:16Z</time>
      </trkpt>
      <trkpt lat="45.368208037689328" lon="8.839413011446595">
        <ele>87.484999999999999</ele>
        <time>2010-06-10T20:58:23Z</time>
      </trkpt>
      <trkpt lat="45.368157997727394" lon="8.839442012831569">
        <ele>87.454999999999998</ele>
        <time>2010-06-10T20:58:24Z</time>
      </trkpt>
      <trkpt lat="45.367950964719057" lon="8.839453998953104">
        <ele>87.135000000000005</ele>
        <time>2010-06-10T20:58:28Z</time>
      </trkpt>
      <trkpt lat="45.367782991379499" lon="8.839291976764798">
        <ele>87.477999999999994</ele>
        <time>2010-06-10T20:58:32Z</time>
      </trkpt>
      <trkpt lat="45.367713002488017" lon="8.839207990095019">
        <ele>87.826999999999998</ele>
        <time>2010-06-10T20:58:34Z</time>
      </trkpt>
      <trkpt lat="45.367524996399879" lon="8.839155016466975">
        <ele>88.245000000000005</ele>
        <time>2010-06-10T20:58:38Z</time>
      </trkpt>
      <trkpt lat="45.367420976981521" lon="8.839170020073652">
        <ele>88.222999999999999</ele>
        <time>2010-06-10T20:58:40Z</time>
      </trkpt>
      <trkpt lat="45.367248980328441" lon="8.839332964271307">
        <ele>88.126999999999995</ele>
        <time>2010-06-10T20:58:44Z</time>
      </trkpt>
      <trkpt lat="45.367069020867348" lon="8.839489035308361">
        <ele>88</ele>
        <time>2010-06-10T20:58:48Z</time>
      </trkpt>
      <trkpt lat="45.36696701310575" lon="8.839534968137741">
        <ele>88.105000000000004</ele>
        <time>2010-06-10T20:58:50Z</time>
      </trkpt>
      <trkpt lat="45.366872968152165" lon="8.839591965079308">
        <ele>88.153000000000006</ele>
        <time>2010-06-10T20:58:52Z</time>
      </trkpt>
      <trkpt lat="45.366707006469369" lon="8.839647034183145">
        <ele>88.525999999999996</ele>
        <time>2010-06-10T20:58:57Z</time>
      </trkpt>
      <trkpt lat="45.366684040054679" lon="8.839621972292662">
        <ele>88.579999999999998</ele>
        <time>2010-06-10T20:58:58Z</time>
      </trkpt>
      <trkpt lat="45.366481030359864" lon="8.839414017274976">
        <ele>89.444000000000003</ele>
        <time>2010-06-10T20:59:05Z</time>
      </trkpt>
      <trkpt lat="45.366266034543514" lon="8.839212013408542">
        <ele>91.230999999999995</ele>
        <time>2010-06-10T20:59:12Z</time>
      </trkpt>
      <trkpt lat="45.366074005141854" lon="8.838980002328754">
        <ele>93.637</ele>
        <time>2010-06-10T20:59:20Z</time>
      </trkpt>
      <trkpt lat="45.365916006267071" lon="8.838943960145116">
        <ele>95.116</ele>
        <time>2010-06-10T20:59:25Z</time>
      </trkpt>
      <trkpt lat="45.36582799628377" lon="8.838943960145116">
        <ele>96.179000000000002</ele>
        <time>2010-06-10T20:59:28Z</time>
      </trkpt>
      <trkpt lat="45.365820033475757" lon="8.838862990960479">
        <ele>97.218999999999994</ele>
        <time>2010-06-10T20:59:32Z</time>
      </trkpt>
      <trkpt lat="45.365906031802297" lon="8.838848993182182">
        <ele>97.841999999999999</ele>
        <time>2010-06-10T20:59:35Z</time>
      </trkpt>
      <trkpt lat="45.366121027618647" lon="8.838857961818576">
        <ele>98.796999999999997</ele>
        <time>2010-06-10T20:59:42Z</time>
      </trkpt>
      <trkpt lat="45.366167966276407" lon="8.838611030951142">
        <ele>98.995999999999995</ele>
        <time>2010-06-10T20:59:48Z</time>
      </trkpt>
      <trkpt lat="45.366200990974903" lon="8.838579012081027">
        <ele>99.052000000000007</ele>
        <time>2010-06-10T20:59:52Z</time>
      </trkpt>
      <trkpt lat="45.366201996803284" lon="8.838592004030943">
        <ele>99.031999999999996</ele>
        <time>2010-06-10T20:59:54Z</time>
      </trkpt>
      <trkpt lat="45.366175007075071" lon="8.838558979332447">
        <ele>98.802000000000007</ele>
        <time>2010-06-10T21:00:39Z</time>
      </trkpt>
      <trkpt lat="45.366175007075071" lon="8.838506005704403">
        <ele>98.832999999999998</ele>
        <time>2010-06-10T21:00:40Z</time>
      </trkpt>
      <trkpt lat="45.366134019568563" lon="8.838066961616278">
        <ele>99.757999999999996</ele>
        <time>2010-06-10T21:00:48Z</time>
      </trkpt>
      <trkpt lat="45.366095965728164" lon="8.837819024920464">
        <ele>100.816</ele>
        <time>2010-06-10T21:00:53Z</time>
      </trkpt>
      <trkpt lat="45.366061013191938" lon="8.837484000250697">
        <ele>101.95699999999999</ele>
        <time>2010-06-10T21:00:59Z</time>
      </trkpt>
      <trkpt lat="45.366041986271739" lon="8.8372300285846">
        <ele>102.97799999999999</ele>
        <time>2010-06-10T21:01:03Z</time>
      </trkpt>
      <trkpt lat="45.365998987108469" lon="8.837050991132855">
        <ele>103.48399999999999</ele>
        <time>2010-06-10T21:01:06Z</time>
      </trkpt>
      <trkpt lat="45.365864960476756" lon="8.836636003106833">
        <ele>104.139</ele>
        <time>2010-06-10T21:01:13Z</time>
      </trkpt>
      <trkpt lat="45.365824978798628" lon="8.836516980081797">
        <ele>104.381</ele>
        <time>2010-06-10T21:01:15Z</time>
      </trkpt>
      <trkpt lat="45.36565599963069" lon="8.836036026477814">
        <ele>105.08799999999999</ele>
        <time>2010-06-10T21:01:23Z</time>
      </trkpt>
      <trkpt lat="45.365546029061079" lon="8.835712987929583">
        <ele>104.937</ele>
        <time>2010-06-10T21:01:28Z</time>
      </trkpt>
      <trkpt lat="45.365423988550901" lon="8.83527603931725">
        <ele>105.10599999999999</ele>
        <time>2010-06-10T21:01:34Z</time>
      </trkpt>
      <trkpt lat="45.36546397022903" lon="8.835036987438798">
        <ele>105.23099999999999</ele>
        <time>2010-06-10T21:01:38Z</time>
      </trkpt>
      <trkpt lat="45.36550504155457" lon="8.834994994103909">
        <ele>105.306</ele>
        <time>2010-06-10T21:01:39Z</time>
      </trkpt>
      <trkpt lat="45.365626998245716" lon="8.834864990785718">
        <ele>105.328</ele>
        <time>2010-06-10T21:01:42Z</time>
      </trkpt>
      <trkpt lat="45.365769993513823" lon="8.834706991910934">
        <ele>105.399</ele>
        <time>2010-06-10T21:01:46Z</time>
      </trkpt>
      <trkpt lat="45.365745015442371" lon="8.83441798388958">
        <ele>105.31699999999999</ele>
        <time>2010-06-10T21:01:51Z</time>
      </trkpt>
      <trkpt lat="45.365622974932194" lon="8.833995033055544">
        <ele>105.32599999999999</ele>
        <time>2010-06-10T21:01:58Z</time>
      </trkpt>
      <trkpt lat="45.365459024906158" lon="8.833415005356073">
        <ele>105.3</ele>
        <time>2010-06-10T21:02:08Z</time>
      </trkpt>
      <trkpt lat="45.365366991609335" lon="8.833026001229882">
        <ele>105.499</ele>
        <time>2010-06-10T21:02:15Z</time>
      </trkpt>
      <trkpt lat="45.365234976634383" lon="8.832630040124059">
        <ele>105.755</ele>
        <time>2010-06-10T21:02:23Z</time>
      </trkpt>
      <trkpt lat="45.365107990801334" lon="8.832199964672327">
        <ele>105.93600000000001</ele>
        <time>2010-06-10T21:02:31Z</time>
      </trkpt>
      <trkpt lat="45.364972036331892" lon="8.831728985533118">
        <ele>106.081</ele>
        <time>2010-06-10T21:02:39Z</time>
      </trkpt>
      <trkpt lat="45.364765003323555" lon="8.831002023071051">
        <ele>106.07599999999999</ele>
        <time>2010-06-10T21:02:51Z</time>
      </trkpt>
      <trkpt lat="45.364641034975648" lon="8.830545041710138">
        <ele>106.556</ele>
        <time>2010-06-10T21:02:59Z</time>
      </trkpt>
      <trkpt lat="45.364490998908877" lon="8.830007007345557">
        <ele>106.461</ele>
        <time>2010-06-10T21:03:08Z</time>
      </trkpt>
      <trkpt lat="45.364340040832758" lon="8.829477019608021">
        <ele>106.613</ele>
        <time>2010-06-10T21:03:17Z</time>
      </trkpt>
      <trkpt lat="45.364187993109226" lon="8.82891601882875">
        <ele>107.117</ele>
        <time>2010-06-10T21:03:27Z</time>
      </trkpt>
      <trkpt lat="45.364036029204726" lon="8.828388964757323">
        <ele>107.047</ele>
        <time>2010-06-10T21:03:36Z</time>
      </trkpt>
      <trkpt lat="45.363843999803066" lon="8.827723022550345">
        <ele>107.139</ele>
        <time>2010-06-10T21:03:47Z</time>
      </trkpt>
      <trkpt lat="45.36365901120007" lon="8.827079962939024">
        <ele>107.211</ele>
        <time>2010-06-10T21:03:58Z</time>
      </trkpt>
      <trkpt lat="45.36346698179841" lon="8.826451990753412">
        <ele>107.095</ele>
        <time>2010-06-10T21:04:08Z</time>
      </trkpt>
      <trkpt lat="45.363290039822459" lon="8.825890989974141">
        <ele>107.084</ele>
        <time>2010-06-10T21:04:17Z</time>
      </trkpt>
      <trkpt lat="45.363202029839158" lon="8.825554959475994">
        <ele>107.252</ele>
        <time>2010-06-10T21:04:23Z</time>
      </trkpt>
      <trkpt lat="45.363101027905941" lon="8.825213983654976">
        <ele>107.316</ele>
        <time>2010-06-10T21:04:30Z</time>
      </trkpt>
      <trkpt lat="45.362891983240843" lon="8.824477968737483">
        <ele>107.61</ele>
        <time>2010-06-10T21:04:42Z</time>
      </trkpt>
      <trkpt lat="45.362714035436511" lon="8.82384798489511">
        <ele>107.84399999999999</ele>
        <time>2010-06-10T21:04:52Z</time>
      </trkpt>
      <trkpt lat="45.362504990771413" lon="8.823110964149237">
        <ele>107.92400000000001</ele>
        <time>2010-06-10T21:05:03Z</time>
      </trkpt>
      <trkpt lat="45.362363001331687" lon="8.822520961984992">
        <ele>106.624</ele>
        <time>2010-06-10T21:05:11Z</time>
      </trkpt>
      <trkpt lat="45.362225035205483" lon="8.821852002292872">
        <ele>106.539</ele>
        <time>2010-06-10T21:05:20Z</time>
      </trkpt>
      <trkpt lat="45.362130990251899" lon="8.821258982643485">
        <ele>106.517</ele>
        <time>2010-06-10T21:05:28Z</time>
      </trkpt>
      <trkpt lat="45.361972991377115" lon="8.821092015132308">
        <ele>106.617</ele>
        <time>2010-06-10T21:05:32Z</time>
      </trkpt>
      <trkpt lat="45.361868971958756" lon="8.821131996810436">
        <ele>106.86799999999999</ele>
        <time>2010-06-10T21:05:34Z</time>
      </trkpt>
      <trkpt lat="45.361608965322375" lon="8.821285972371697">
        <ele>106.898</ele>
        <time>2010-06-10T21:05:39Z</time>
      </trkpt>
      <trkpt lat="45.361148966476321" lon="8.821550002321601">
        <ele>107.13800000000001</ele>
        <time>2010-06-10T21:05:48Z</time>
      </trkpt>
      <trkpt lat="45.360597018152475" lon="8.821879997849464">
        <ele>106.992</ele>
        <time>2010-06-10T21:05:59Z</time>
      </trkpt>
      <trkpt lat="45.360146993771195" lon="8.822146961465478">
        <ele>106.85899999999999</ele>
        <time>2010-06-10T21:06:08Z</time>
      </trkpt>
      <trkpt lat="45.359796965494752" lon="8.822347037494183">
        <ele>106.83799999999999</ele>
        <time>2010-06-10T21:06:15Z</time>
      </trkpt>
      <trkpt lat="45.359588004648685" lon="8.822313006967306">
        <ele>106.71299999999999</ele>
        <time>2010-06-10T21:06:19Z</time>
      </trkpt>
      <trkpt lat="45.359546011313796" lon="8.822261039167643">
        <ele>106.577</ele>
        <time>2010-06-10T21:06:20Z</time>
      </trkpt>
      <trkpt lat="45.359228001907468" lon="8.821790982037783">
        <ele>106.49299999999999</ele>
        <time>2010-06-10T21:06:28Z</time>
      </trkpt>
      <trkpt lat="45.358901023864746" lon="8.821322014555335">
        <ele>106.66200000000001</ele>
        <time>2010-06-10T21:06:36Z</time>
      </trkpt>
      <trkpt lat="45.358637999743223" lon="8.82092596963048">
        <ele>106.59999999999999</ele>
        <time>2010-06-10T21:06:43Z</time>
      </trkpt>
      <trkpt lat="45.358602041378617" lon="8.820870984345675">
        <ele>106.675</ele>
        <time>2010-06-10T21:06:44Z</time>
      </trkpt>
      <trkpt lat="45.358424009755254" lon="8.820742992684245">
        <ele>107.18600000000001</ele>
        <time>2010-06-10T21:06:48Z</time>
      </trkpt>
      <trkpt lat="45.358324013650417" lon="8.82077400572598">
        <ele>107.366</ele>
        <time>2010-06-10T21:06:50Z</time>
      </trkpt>
      <trkpt lat="45.357882035896182" lon="8.821024037897587">
        <ele>107.509</ele>
        <time>2010-06-10T21:06:59Z</time>
      </trkpt>
      <trkpt lat="45.357581963762641" lon="8.821191005408764">
        <ele>107.42700000000001</ele>
        <time>2010-06-10T21:07:05Z</time>
      </trkpt>
      <trkpt lat="45.3572369646281" lon="8.821388985961676">
        <ele>107.52800000000001</ele>
        <time>2010-06-10T21:07:12Z</time>
      </trkpt>
      <trkpt lat="45.356865981593728" lon="8.821593001484871">
        <ele>107.652</ele>
        <time>2010-06-10T21:07:20Z</time>
      </trkpt>
      <trkpt lat="45.356764979660511" lon="8.82148303091526">
        <ele>107.387</ele>
        <time>2010-06-10T21:07:24Z</time>
      </trkpt>
      <trkpt lat="45.356616033241153" lon="8.820905014872551">
        <ele>107.514</ele>
        <time>2010-06-10T21:07:33Z</time>
      </trkpt>
      <trkpt lat="45.356472032144666" lon="8.820416014641523">
        <ele>107.59699999999999</ele>
        <time>2010-06-10T21:07:41Z</time>
      </trkpt>
      <trkpt lat="45.35628997720778" lon="8.819794999435544">
        <ele>108.139</ele>
        <time>2010-06-10T21:07:51Z</time>
      </trkpt>
      <trkpt lat="45.356110017746687" lon="8.819199968129396">
        <ele>108.721</ele>
        <time>2010-06-10T21:08:01Z</time>
      </trkpt>
      <trkpt lat="45.355935003608465" lon="8.818588005378842">
        <ele>108.98699999999999</ele>
        <time>2010-06-10T21:08:11Z</time>
      </trkpt>
      <trkpt lat="45.355882029980421" lon="8.818395975977182">
        <ele>108.956</ele>
        <time>2010-06-10T21:08:14Z</time>
      </trkpt>
      <trkpt lat="45.355763006955385" lon="8.818221967667341">
        <ele>109.161</ele>
        <time>2010-06-10T21:08:18Z</time>
      </trkpt>
      <trkpt lat="45.355682037770748" lon="8.818240994587541">
        <ele>109.438</ele>
        <time>2010-06-10T21:08:20Z</time>
      </trkpt>
      <trkpt lat="45.355621017515659" lon="8.818266978487372">
        <ele>109.968</ele>
        <time>2010-06-10T21:08:22Z</time>
      </trkpt>
      <trkpt lat="45.355607019737363" lon="8.818181985989213">
        <ele>110.842</ele>
        <time>2010-06-10T21:08:26Z</time>
      </trkpt>
      <trkpt lat="45.355659993365407" lon="8.817940000444651">
        <ele>110.67700000000001</ele>
        <time>2010-06-10T21:08:32Z</time>
      </trkpt>
      <trkpt lat="45.355727970600128" lon="8.817640012130141">
        <ele>110.58199999999999</ele>
        <time>2010-06-10T21:08:39Z</time>
      </trkpt>
      <trkpt lat="45.355740040540695" lon="8.817587038502097">
        <ele>110.608</ele>
        <time>2010-06-10T21:08:40Z</time>
      </trkpt>
      <trkpt lat="45.355856968089938" lon="8.81701597943902">
        <ele>110.40300000000001</ele>
        <time>2010-06-10T21:08:49Z</time>
      </trkpt>
      <trkpt lat="45.355911031365395" lon="8.81673401221633">
        <ele>110.25</ele>
        <time>2010-06-10T21:08:53Z</time>
      </trkpt>
      <trkpt lat="45.355916982516646" lon="8.816515998914838">
        <ele>110.173</ele>
        <time>2010-06-10T21:08:56Z</time>
      </trkpt>
      <trkpt lat="45.355980014428496" lon="8.816128000617027">
        <ele>110.27</ele>
        <time>2010-06-10T21:09:02Z</time>
      </trkpt>
      <trkpt lat="45.356023013591766" lon="8.815903030335903">
        <ele>110.407</ele>
        <time>2010-06-10T21:09:06Z</time>
      </trkpt>
      <trkpt lat="45.356109011918306" lon="8.815517965704203">
        <ele>110.374</ele>
        <time>2010-06-10T21:09:13Z</time>
      </trkpt>
      <trkpt lat="45.356194004416466" lon="8.815095014870167">
        <ele>110.316</ele>
        <time>2010-06-10T21:09:21Z</time>
      </trkpt>
      <trkpt lat="45.356176989153028" lon="8.814926035702229">
        <ele>110.485</ele>
        <time>2010-06-10T21:09:25Z</time>
      </trkpt>
      <trkpt lat="45.356159973889589" lon="8.814892005175352">
        <ele>110.53400000000001</ele>
        <time>2010-06-10T21:09:26Z</time>
      </trkpt>
      <trkpt lat="45.35607598721981" lon="8.814877001568675">
        <ele>110.66</ele>
        <time>2010-06-10T21:09:31Z</time>
      </trkpt>
      <trkpt lat="45.35607598721981" lon="8.814878007397056">
        <ele>110.67700000000001</ele>
        <time>2010-06-10T21:09:32Z</time>
      </trkpt>
      <trkpt lat="45.355916982516646" lon="8.814965011551976">
        <ele>110.374</ele>
        <time>2010-06-10T21:10:07Z</time>
      </trkpt>
      <trkpt lat="45.355614982545376" lon="8.815225018188357">
        <ele>110.251</ele>
        <time>2010-06-10T21:10:14Z</time>
      </trkpt>
      <trkpt lat="45.355216003954411" lon="8.81559700705111">
        <ele>110.276</ele>
        <time>2010-06-10T21:10:23Z</time>
      </trkpt>
      <trkpt lat="45.355156995356083" lon="8.815656015649438">
        <ele>110.488</ele>
        <time>2010-06-10T21:10:25Z</time>
      </trkpt>
      <trkpt lat="45.355025986209512" lon="8.815586026757956">
        <ele>110.378</ele>
        <time>2010-06-10T21:10:29Z</time>
      </trkpt>
      <trkpt lat="45.354880979284644" lon="8.815362984314561">
        <ele>110.479</ele>
        <time>2010-06-10T21:10:35Z</time>
      </trkpt>
      <trkpt lat="45.354862958192825" lon="8.81533901207149">
        <ele>110.736</ele>
        <time>2010-06-10T21:10:39Z</time>
      </trkpt>
      <trkpt lat="45.354862958192825" lon="8.81533901207149">
        <ele>110.742</ele>
        <time>2010-06-10T21:10:40Z</time>
      </trkpt>
    </trkseg>
  </trk>

</gpx>
